<?xml version="1.0" encoding="UTF-8" standalone="no" ?>
<gpx xmlns="http://www.topografix.com/GPX/1/1" xmlns:xsi="http://www.w3.org/2001/XMLSchema-instance" xsi:schemaLocation="http://www.topografix.com/GPX/1/1 http://www.topografix.com/GPX/1/1/gpx.xsd" version="1.1" creator="VisuGPX - https://www.visugpx.com">
  <metadata>
    <name>Rando VTT Collobrières 10 octobre 2010, version courte</name>
    <desc><![CDATA[La rando courte VTT de Collobrières (83) organisée par le cyclo vtt des Maures.
Géniale!
Dernière descente (GR) trop difficile pour moi...
Attention au départ je me suis trompé de chemin d\'où une petite boucle sans intérêt, de même avant le GR (ça se voit sur le tracé).]]></desc>
  </metadata>
  <trk>
    <name><![CDATA[2010-10-10 09:03:33 +0200]]></name>
    <cmt><![CDATA[2010-10-10 09:03:33 +0200]]></cmt>
    <trkseg>
      <trkpt lat="43.23732" lon="6.30248">
        <ele>138</ele>
        <time>2010-10-10T07:03:34Z</time>
      </trkpt>
      <trkpt lat="43.2373" lon="6.30261">
        <ele>147</ele>
        <time>2010-10-10T07:04:59Z</time>
      </trkpt>
      <trkpt lat="43.23727" lon="6.30266">
        <ele>149</ele>
        <time>2010-10-10T07:05:40Z</time>
      </trkpt>
      <trkpt lat="43.23734" lon="6.30274">
        <ele>150</ele>
        <time>2010-10-10T07:05:46Z</time>
      </trkpt>
      <trkpt lat="43.23735" lon="6.3028">
        <ele>151</ele>
        <time>2010-10-10T07:06:09Z</time>
      </trkpt>
      <trkpt lat="43.23743" lon="6.30274">
        <ele>151</ele>
        <time>2010-10-10T07:06:33Z</time>
      </trkpt>
      <trkpt lat="43.23753" lon="6.30283">
        <ele>150</ele>
        <time>2010-10-10T07:06:38Z</time>
      </trkpt>
      <trkpt lat="43.23766" lon="6.30296">
        <ele>150</ele>
        <time>2010-10-10T07:06:45Z</time>
      </trkpt>
      <trkpt lat="43.23766" lon="6.30311">
        <ele>148</ele>
        <time>2010-10-10T07:06:49Z</time>
      </trkpt>
      <trkpt lat="43.23738" lon="6.30377">
        <ele>145</ele>
        <time>2010-10-10T07:07:00Z</time>
      </trkpt>
      <trkpt lat="43.23677" lon="6.30582">
        <ele>156</ele>
        <time>2010-10-10T07:07:31Z</time>
      </trkpt>
      <trkpt lat="43.23672" lon="6.30635">
        <ele>160</ele>
        <time>2010-10-10T07:07:38Z</time>
      </trkpt>
      <trkpt lat="43.23698" lon="6.30728">
        <ele>161</ele>
        <time>2010-10-10T07:07:52Z</time>
      </trkpt>
      <trkpt lat="43.23696" lon="6.30743">
        <ele>161</ele>
        <time>2010-10-10T07:07:55Z</time>
      </trkpt>
      <trkpt lat="43.23689" lon="6.30761">
        <ele>161</ele>
        <time>2010-10-10T07:07:59Z</time>
      </trkpt>
      <trkpt lat="43.23686" lon="6.30811">
        <ele>161</ele>
        <time>2010-10-10T07:08:30Z</time>
      </trkpt>
      <trkpt lat="43.23683" lon="6.30875">
        <ele>162</ele>
        <time>2010-10-10T07:08:43Z</time>
      </trkpt>
      <trkpt lat="43.23698" lon="6.3089">
        <ele>162</ele>
        <time>2010-10-10T07:08:55Z</time>
      </trkpt>
      <trkpt lat="43.23709" lon="6.30907">
        <ele>163</ele>
        <time>2010-10-10T07:09:06Z</time>
      </trkpt>
      <trkpt lat="43.2372" lon="6.30907">
        <ele>165</ele>
        <time>2010-10-10T07:11:43Z</time>
      </trkpt>
      <trkpt lat="43.23747" lon="6.30893">
        <ele>166</ele>
        <time>2010-10-10T07:12:31Z</time>
      </trkpt>
      <trkpt lat="43.23751" lon="6.30893">
        <ele>166</ele>
        <time>2010-10-10T07:14:35Z</time>
      </trkpt>
      <trkpt lat="43.23754" lon="6.30889">
        <ele>165</ele>
        <time>2010-10-10T07:15:13Z</time>
      </trkpt>
      <trkpt lat="43.23743" lon="6.30891">
        <ele>166</ele>
        <time>2010-10-10T07:15:54Z</time>
      </trkpt>
      <trkpt lat="43.23719" lon="6.30905">
        <ele>165</ele>
        <time>2010-10-10T07:16:18Z</time>
      </trkpt>
      <trkpt lat="43.23718" lon="6.30898">
        <ele>165</ele>
        <time>2010-10-10T07:17:46Z</time>
      </trkpt>
      <trkpt lat="43.23722" lon="6.30912">
        <ele>165</ele>
        <time>2010-10-10T07:17:50Z</time>
      </trkpt>
      <trkpt lat="43.2372" lon="6.30918">
        <ele>165</ele>
        <time>2010-10-10T07:17:55Z</time>
      </trkpt>
      <trkpt lat="43.23715" lon="6.30916">
        <ele>166</ele>
        <time>2010-10-10T07:17:59Z</time>
      </trkpt>
      <trkpt lat="43.23706" lon="6.30907">
        <ele>166</ele>
        <time>2010-10-10T07:18:05Z</time>
      </trkpt>
      <trkpt lat="43.23701" lon="6.30896">
        <ele>166</ele>
        <time>2010-10-10T07:18:11Z</time>
      </trkpt>
      <trkpt lat="43.23693" lon="6.30905">
        <ele>167</ele>
        <time>2010-10-10T07:18:23Z</time>
      </trkpt>
      <trkpt lat="43.23691" lon="6.30922">
        <ele>167</ele>
        <time>2010-10-10T07:18:27Z</time>
      </trkpt>
      <trkpt lat="43.23669" lon="6.3101">
        <ele>168</ele>
        <time>2010-10-10T07:18:57Z</time>
      </trkpt>
      <trkpt lat="43.23644" lon="6.31036">
        <ele>169</ele>
        <time>2010-10-10T07:19:12Z</time>
      </trkpt>
      <trkpt lat="43.23637" lon="6.31032">
        <ele>169</ele>
        <time>2010-10-10T07:19:15Z</time>
      </trkpt>
      <trkpt lat="43.23578" lon="6.30989">
        <ele>171</ele>
        <time>2010-10-10T07:19:41Z</time>
      </trkpt>
      <trkpt lat="43.2357" lon="6.3097">
        <ele>171</ele>
        <time>2010-10-10T07:19:46Z</time>
      </trkpt>
      <trkpt lat="43.2354" lon="6.30951">
        <ele>171</ele>
        <time>2010-10-10T07:19:53Z</time>
      </trkpt>
      <trkpt lat="43.23399" lon="6.3096">
        <ele>171</ele>
        <time>2010-10-10T07:20:24Z</time>
      </trkpt>
      <trkpt lat="43.23348" lon="6.30974">
        <ele>171</ele>
        <time>2010-10-10T07:20:53Z</time>
      </trkpt>
      <trkpt lat="43.23303" lon="6.30943">
        <ele>174</ele>
        <time>2010-10-10T07:21:29Z</time>
      </trkpt>
      <trkpt lat="43.23265" lon="6.30925">
        <ele>178</ele>
        <time>2010-10-10T07:22:00Z</time>
      </trkpt>
      <trkpt lat="43.23256" lon="6.3092">
        <ele>180</ele>
        <time>2010-10-10T07:22:13Z</time>
      </trkpt>
      <trkpt lat="43.23244" lon="6.30924">
        <ele>182</ele>
        <time>2010-10-10T07:22:48Z</time>
      </trkpt>
      <trkpt lat="43.23232" lon="6.30925">
        <ele>183</ele>
        <time>2010-10-10T07:22:59Z</time>
      </trkpt>
      <trkpt lat="43.23223" lon="6.30925">
        <ele>184</ele>
        <time>2010-10-10T07:23:09Z</time>
      </trkpt>
      <trkpt lat="43.23219" lon="6.30921">
        <ele>185</ele>
        <time>2010-10-10T07:23:22Z</time>
      </trkpt>
      <trkpt lat="43.23221" lon="6.30908">
        <ele>189</ele>
        <time>2010-10-10T07:23:50Z</time>
      </trkpt>
      <trkpt lat="43.23217" lon="6.30895">
        <ele>190</ele>
        <time>2010-10-10T07:23:58Z</time>
      </trkpt>
      <trkpt lat="43.2318" lon="6.3085">
        <ele>196</ele>
        <time>2010-10-10T07:24:31Z</time>
      </trkpt>
      <trkpt lat="43.23173" lon="6.30837">
        <ele>199</ele>
        <time>2010-10-10T07:24:48Z</time>
      </trkpt>
      <trkpt lat="43.23176" lon="6.3083">
        <ele>201</ele>
        <time>2010-10-10T07:25:01Z</time>
      </trkpt>
      <trkpt lat="43.23185" lon="6.30776">
        <ele>208</ele>
        <time>2010-10-10T07:25:33Z</time>
      </trkpt>
      <trkpt lat="43.23195" lon="6.30753">
        <ele>210</ele>
        <time>2010-10-10T07:25:49Z</time>
      </trkpt>
      <trkpt lat="43.23214" lon="6.30741">
        <ele>213</ele>
        <time>2010-10-10T07:26:06Z</time>
      </trkpt>
      <trkpt lat="43.23216" lon="6.30738">
        <ele>216</ele>
        <time>2010-10-10T07:26:17Z</time>
      </trkpt>
      <trkpt lat="43.23217" lon="6.30731">
        <ele>216</ele>
        <time>2010-10-10T07:26:18Z</time>
      </trkpt>
      <trkpt lat="43.23212" lon="6.30731">
        <ele>218</ele>
        <time>2010-10-10T07:26:25Z</time>
      </trkpt>
      <trkpt lat="43.23199" lon="6.30737">
        <ele>222</ele>
        <time>2010-10-10T07:26:49Z</time>
      </trkpt>
      <trkpt lat="43.23175" lon="6.30741">
        <ele>226</ele>
        <time>2010-10-10T07:27:24Z</time>
      </trkpt>
      <trkpt lat="43.23128" lon="6.30762">
        <ele>232</ele>
        <time>2010-10-10T07:28:01Z</time>
      </trkpt>
      <trkpt lat="43.23095" lon="6.30783">
        <ele>236</ele>
        <time>2010-10-10T07:28:41Z</time>
      </trkpt>
      <trkpt lat="43.23079" lon="6.30815">
        <ele>240</ele>
        <time>2010-10-10T07:29:18Z</time>
      </trkpt>
      <trkpt lat="43.23075" lon="6.30826">
        <ele>242</ele>
        <time>2010-10-10T07:29:27Z</time>
      </trkpt>
      <trkpt lat="43.23068" lon="6.30825">
        <ele>244</ele>
        <time>2010-10-10T07:29:43Z</time>
      </trkpt>
      <trkpt lat="43.23067" lon="6.30817">
        <ele>246</ele>
        <time>2010-10-10T07:30:10Z</time>
      </trkpt>
      <trkpt lat="43.23064" lon="6.30791">
        <ele>247</ele>
        <time>2010-10-10T07:30:34Z</time>
      </trkpt>
      <trkpt lat="43.23054" lon="6.30795">
        <ele>250</ele>
        <time>2010-10-10T07:30:56Z</time>
      </trkpt>
      <trkpt lat="43.23037" lon="6.30809">
        <ele>254</ele>
        <time>2010-10-10T07:31:21Z</time>
      </trkpt>
      <trkpt lat="43.23036" lon="6.30816">
        <ele>254</ele>
        <time>2010-10-10T07:31:31Z</time>
      </trkpt>
      <trkpt lat="43.23031" lon="6.30814">
        <ele>255</ele>
        <time>2010-10-10T07:31:36Z</time>
      </trkpt>
      <trkpt lat="43.23017" lon="6.30794">
        <ele>257</ele>
        <time>2010-10-10T07:31:44Z</time>
      </trkpt>
      <trkpt lat="43.23014" lon="6.30784">
        <ele>258</ele>
        <time>2010-10-10T07:31:49Z</time>
      </trkpt>
      <trkpt lat="43.23003" lon="6.30785">
        <ele>258</ele>
        <time>2010-10-10T07:31:53Z</time>
      </trkpt>
      <trkpt lat="43.22982" lon="6.30807">
        <ele>260</ele>
        <time>2010-10-10T07:32:01Z</time>
      </trkpt>
      <trkpt lat="43.22978" lon="6.30803">
        <ele>260</ele>
        <time>2010-10-10T07:32:04Z</time>
      </trkpt>
      <trkpt lat="43.22946" lon="6.30704">
        <ele>262</ele>
        <time>2010-10-10T07:32:36Z</time>
      </trkpt>
      <trkpt lat="43.22922" lon="6.30616">
        <ele>263</ele>
        <time>2010-10-10T07:32:56Z</time>
      </trkpt>
      <trkpt lat="43.22883" lon="6.30586">
        <ele>263</ele>
        <time>2010-10-10T07:33:07Z</time>
      </trkpt>
      <trkpt lat="43.22852" lon="6.30544">
        <ele>262</ele>
        <time>2010-10-10T07:33:37Z</time>
      </trkpt>
      <trkpt lat="43.22843" lon="6.30518">
        <ele>261</ele>
        <time>2010-10-10T07:33:44Z</time>
      </trkpt>
      <trkpt lat="43.22831" lon="6.30512">
        <ele>259</ele>
        <time>2010-10-10T07:33:54Z</time>
      </trkpt>
      <trkpt lat="43.22837" lon="6.305">
        <ele>257</ele>
        <time>2010-10-10T07:34:00Z</time>
      </trkpt>
      <trkpt lat="43.22839" lon="6.30487">
        <ele>256</ele>
        <time>2010-10-10T07:34:03Z</time>
      </trkpt>
      <trkpt lat="43.22841" lon="6.30472">
        <ele>252</ele>
        <time>2010-10-10T07:34:06Z</time>
      </trkpt>
      <trkpt lat="43.22836" lon="6.30367">
        <ele>251</ele>
        <time>2010-10-10T07:34:23Z</time>
      </trkpt>
      <trkpt lat="43.2283" lon="6.3028">
        <ele>249</ele>
        <time>2010-10-10T07:34:35Z</time>
      </trkpt>
      <trkpt lat="43.22809" lon="6.30206">
        <ele>244</ele>
        <time>2010-10-10T07:34:48Z</time>
      </trkpt>
      <trkpt lat="43.22811" lon="6.30182">
        <ele>243</ele>
        <time>2010-10-10T07:34:54Z</time>
      </trkpt>
      <trkpt lat="43.22819" lon="6.30171">
        <ele>241</ele>
        <time>2010-10-10T07:34:57Z</time>
      </trkpt>
      <trkpt lat="43.22824" lon="6.3017">
        <ele>240</ele>
        <time>2010-10-10T07:35:01Z</time>
      </trkpt>
      <trkpt lat="43.2282" lon="6.30155">
        <ele>235</ele>
        <time>2010-10-10T07:35:05Z</time>
      </trkpt>
      <trkpt lat="43.22814" lon="6.30144">
        <ele>232</ele>
        <time>2010-10-10T07:35:07Z</time>
      </trkpt>
      <trkpt lat="43.2281" lon="6.3013">
        <ele>232</ele>
        <time>2010-10-10T07:35:10Z</time>
      </trkpt>
      <trkpt lat="43.228" lon="6.30126">
        <ele>231</ele>
        <time>2010-10-10T07:35:13Z</time>
      </trkpt>
      <trkpt lat="43.22788" lon="6.30122">
        <ele>230</ele>
        <time>2010-10-10T07:35:17Z</time>
      </trkpt>
      <trkpt lat="43.22773" lon="6.30098">
        <ele>229</ele>
        <time>2010-10-10T07:35:24Z</time>
      </trkpt>
      <trkpt lat="43.22724" lon="6.29997">
        <ele>207</ele>
        <time>2010-10-10T07:35:55Z</time>
      </trkpt>
      <trkpt lat="43.22714" lon="6.29987">
        <ele>205</ele>
        <time>2010-10-10T07:36:00Z</time>
      </trkpt>
      <trkpt lat="43.22706" lon="6.29996">
        <ele>202</ele>
        <time>2010-10-10T07:36:08Z</time>
      </trkpt>
      <trkpt lat="43.22707" lon="6.30006">
        <ele>201</ele>
        <time>2010-10-10T07:36:10Z</time>
      </trkpt>
      <trkpt lat="43.22705" lon="6.30045">
        <ele>197</ele>
        <time>2010-10-10T07:36:18Z</time>
      </trkpt>
      <trkpt lat="43.22717" lon="6.30174">
        <ele>169</ele>
        <time>2010-10-10T07:36:41Z</time>
      </trkpt>
      <trkpt lat="43.22662" lon="6.30339">
        <ele>173</ele>
        <time>2010-10-10T07:37:13Z</time>
      </trkpt>
      <trkpt lat="43.22579" lon="6.30459">
        <ele>173</ele>
        <time>2010-10-10T07:37:45Z</time>
      </trkpt>
      <trkpt lat="43.22501" lon="6.30493">
        <ele>173</ele>
        <time>2010-10-10T07:38:14Z</time>
      </trkpt>
      <trkpt lat="43.22474" lon="6.30648">
        <ele>176</ele>
        <time>2010-10-10T07:38:45Z</time>
      </trkpt>
      <trkpt lat="43.22467" lon="6.30808">
        <ele>180</ele>
        <time>2010-10-10T07:39:19Z</time>
      </trkpt>
      <trkpt lat="43.22459" lon="6.30871">
        <ele>182</ele>
        <time>2010-10-10T07:39:50Z</time>
      </trkpt>
      <trkpt lat="43.2246" lon="6.31002">
        <ele>185</ele>
        <time>2010-10-10T07:40:22Z</time>
      </trkpt>
      <trkpt lat="43.22445" lon="6.31154">
        <ele>189</ele>
        <time>2010-10-10T07:40:53Z</time>
      </trkpt>
      <trkpt lat="43.22428" lon="6.31273">
        <ele>193</ele>
        <time>2010-10-10T07:41:23Z</time>
      </trkpt>
      <trkpt lat="43.22364" lon="6.31357">
        <ele>195</ele>
        <time>2010-10-10T07:41:51Z</time>
      </trkpt>
      <trkpt lat="43.22366" lon="6.31399">
        <ele>196</ele>
        <time>2010-10-10T07:42:04Z</time>
      </trkpt>
      <trkpt lat="43.22338" lon="6.31489">
        <ele>199</ele>
        <time>2010-10-10T07:42:35Z</time>
      </trkpt>
      <trkpt lat="43.22291" lon="6.31548">
        <ele>201</ele>
        <time>2010-10-10T07:42:55Z</time>
      </trkpt>
      <trkpt lat="43.2229" lon="6.31563">
        <ele>201</ele>
        <time>2010-10-10T07:42:58Z</time>
      </trkpt>
      <trkpt lat="43.22303" lon="6.31665">
        <ele>205</ele>
        <time>2010-10-10T07:43:20Z</time>
      </trkpt>
      <trkpt lat="43.22297" lon="6.31675">
        <ele>205</ele>
        <time>2010-10-10T07:43:24Z</time>
      </trkpt>
      <trkpt lat="43.22212" lon="6.31775">
        <ele>206</ele>
        <time>2010-10-10T07:43:57Z</time>
      </trkpt>
      <trkpt lat="43.22188" lon="6.31912">
        <ele>207</ele>
        <time>2010-10-10T07:44:27Z</time>
      </trkpt>
      <trkpt lat="43.22123" lon="6.32015">
        <ele>209</ele>
        <time>2010-10-10T07:44:58Z</time>
      </trkpt>
      <trkpt lat="43.22051" lon="6.32111">
        <ele>211</ele>
        <time>2010-10-10T07:45:32Z</time>
      </trkpt>
      <trkpt lat="43.22005" lon="6.32182">
        <ele>214</ele>
        <time>2010-10-10T07:46:04Z</time>
      </trkpt>
      <trkpt lat="43.21986" lon="6.32212">
        <ele>217</ele>
        <time>2010-10-10T07:46:23Z</time>
      </trkpt>
      <trkpt lat="43.2197" lon="6.32224">
        <ele>219</ele>
        <time>2010-10-10T07:46:36Z</time>
      </trkpt>
      <trkpt lat="43.21966" lon="6.32232">
        <ele>220</ele>
        <time>2010-10-10T07:46:41Z</time>
      </trkpt>
      <trkpt lat="43.21952" lon="6.32238">
        <ele>222</ele>
        <time>2010-10-10T07:46:52Z</time>
      </trkpt>
      <trkpt lat="43.21943" lon="6.32244">
        <ele>222</ele>
        <time>2010-10-10T07:46:55Z</time>
      </trkpt>
      <trkpt lat="43.21937" lon="6.32255">
        <ele>223</ele>
        <time>2010-10-10T07:47:00Z</time>
      </trkpt>
      <trkpt lat="43.21936" lon="6.3227">
        <ele>223</ele>
        <time>2010-10-10T07:47:05Z</time>
      </trkpt>
      <trkpt lat="43.21938" lon="6.32285">
        <ele>224</ele>
        <time>2010-10-10T07:47:11Z</time>
      </trkpt>
      <trkpt lat="43.21933" lon="6.32292">
        <ele>225</ele>
        <time>2010-10-10T07:47:17Z</time>
      </trkpt>
      <trkpt lat="43.21928" lon="6.32296">
        <ele>226</ele>
        <time>2010-10-10T07:47:23Z</time>
      </trkpt>
      <trkpt lat="43.21924" lon="6.32313">
        <ele>226</ele>
        <time>2010-10-10T07:48:13Z</time>
      </trkpt>
      <trkpt lat="43.21907" lon="6.32312">
        <ele>227</ele>
        <time>2010-10-10T07:48:38Z</time>
      </trkpt>
      <trkpt lat="43.21908" lon="6.32309">
        <ele>228</ele>
        <time>2010-10-10T07:49:55Z</time>
      </trkpt>
      <trkpt lat="43.21923" lon="6.3231">
        <ele>228</ele>
        <time>2010-10-10T07:50:14Z</time>
      </trkpt>
      <trkpt lat="43.21927" lon="6.32304">
        <ele>228</ele>
        <time>2010-10-10T07:50:30Z</time>
      </trkpt>
      <trkpt lat="43.21929" lon="6.32298">
        <ele>229</ele>
        <time>2010-10-10T07:50:32Z</time>
      </trkpt>
      <trkpt lat="43.21943" lon="6.32281">
        <ele>231</ele>
        <time>2010-10-10T07:50:37Z</time>
      </trkpt>
      <trkpt lat="43.21955" lon="6.3226">
        <ele>233</ele>
        <time>2010-10-10T07:50:49Z</time>
      </trkpt>
      <trkpt lat="43.22039" lon="6.32148">
        <ele>236</ele>
        <time>2010-10-10T07:51:21Z</time>
      </trkpt>
      <trkpt lat="43.22074" lon="6.32094">
        <ele>236</ele>
        <time>2010-10-10T07:51:36Z</time>
      </trkpt>
      <trkpt lat="43.22151" lon="6.3196">
        <ele>242</ele>
        <time>2010-10-10T07:52:00Z</time>
      </trkpt>
      <trkpt lat="43.22175" lon="6.31917">
        <ele>241</ele>
        <time>2010-10-10T07:52:07Z</time>
      </trkpt>
      <trkpt lat="43.22181" lon="6.31899">
        <ele>241</ele>
        <time>2010-10-10T07:52:10Z</time>
      </trkpt>
      <trkpt lat="43.22184" lon="6.31885">
        <ele>242</ele>
        <time>2010-10-10T07:52:12Z</time>
      </trkpt>
      <trkpt lat="43.22245" lon="6.31783">
        <ele>243</ele>
        <time>2010-10-10T07:52:37Z</time>
      </trkpt>
      <trkpt lat="43.22313" lon="6.31691">
        <ele>235</ele>
        <time>2010-10-10T07:53:00Z</time>
      </trkpt>
      <trkpt lat="43.22319" lon="6.31631">
        <ele>230</ele>
        <time>2010-10-10T07:53:30Z</time>
      </trkpt>
      <trkpt lat="43.22371" lon="6.31499">
        <ele>227</ele>
        <time>2010-10-10T07:54:02Z</time>
      </trkpt>
      <trkpt lat="43.22359" lon="6.31485">
        <ele>225</ele>
        <time>2010-10-10T07:54:14Z</time>
      </trkpt>
      <trkpt lat="43.2235" lon="6.31489">
        <ele>224</ele>
        <time>2010-10-10T07:54:20Z</time>
      </trkpt>
      <trkpt lat="43.22349" lon="6.31496">
        <ele>223</ele>
        <time>2010-10-10T07:54:26Z</time>
      </trkpt>
      <trkpt lat="43.22344" lon="6.31511">
        <ele>222</ele>
        <time>2010-10-10T07:54:33Z</time>
      </trkpt>
      <trkpt lat="43.22289" lon="6.31554">
        <ele>219</ele>
        <time>2010-10-10T07:55:04Z</time>
      </trkpt>
      <trkpt lat="43.22234" lon="6.31599">
        <ele>221</ele>
        <time>2010-10-10T07:55:36Z</time>
      </trkpt>
      <trkpt lat="43.22191" lon="6.31639">
        <ele>225</ele>
        <time>2010-10-10T07:56:08Z</time>
      </trkpt>
      <trkpt lat="43.22148" lon="6.31649">
        <ele>228</ele>
        <time>2010-10-10T07:56:41Z</time>
      </trkpt>
      <trkpt lat="43.22135" lon="6.31657">
        <ele>229</ele>
        <time>2010-10-10T07:56:49Z</time>
      </trkpt>
      <trkpt lat="43.22126" lon="6.31673">
        <ele>230</ele>
        <time>2010-10-10T07:56:59Z</time>
      </trkpt>
      <trkpt lat="43.22115" lon="6.31738">
        <ele>234</ele>
        <time>2010-10-10T07:57:30Z</time>
      </trkpt>
      <trkpt lat="43.22114" lon="6.31742">
        <ele>234</ele>
        <time>2010-10-10T07:57:43Z</time>
      </trkpt>
      <trkpt lat="43.22111" lon="6.31749">
        <ele>235</ele>
        <time>2010-10-10T07:57:48Z</time>
      </trkpt>
      <trkpt lat="43.22063" lon="6.31792">
        <ele>239</ele>
        <time>2010-10-10T07:58:22Z</time>
      </trkpt>
      <trkpt lat="43.2202" lon="6.3182">
        <ele>244</ele>
        <time>2010-10-10T07:58:53Z</time>
      </trkpt>
      <trkpt lat="43.22017" lon="6.31826">
        <ele>244</ele>
        <time>2010-10-10T07:58:56Z</time>
      </trkpt>
      <trkpt lat="43.22009" lon="6.31853">
        <ele>245</ele>
        <time>2010-10-10T07:59:08Z</time>
      </trkpt>
      <trkpt lat="43.21958" lon="6.31901">
        <ele>251</ele>
        <time>2010-10-10T07:59:42Z</time>
      </trkpt>
      <trkpt lat="43.21927" lon="6.31967">
        <ele>254</ele>
        <time>2010-10-10T08:00:13Z</time>
      </trkpt>
      <trkpt lat="43.2192" lon="6.31977">
        <ele>254</ele>
        <time>2010-10-10T08:00:19Z</time>
      </trkpt>
      <trkpt lat="43.219" lon="6.31989">
        <ele>256</ele>
        <time>2010-10-10T08:00:32Z</time>
      </trkpt>
      <trkpt lat="43.21895" lon="6.31988">
        <ele>257</ele>
        <time>2010-10-10T08:00:36Z</time>
      </trkpt>
      <trkpt lat="43.21858" lon="6.31932">
        <ele>262</ele>
        <time>2010-10-10T08:01:06Z</time>
      </trkpt>
      <trkpt lat="43.21822" lon="6.31894">
        <ele>266</ele>
        <time>2010-10-10T08:01:39Z</time>
      </trkpt>
      <trkpt lat="43.21772" lon="6.31885">
        <ele>273</ele>
        <time>2010-10-10T08:02:09Z</time>
      </trkpt>
      <trkpt lat="43.2173" lon="6.31857">
        <ele>276</ele>
        <time>2010-10-10T08:02:31Z</time>
      </trkpt>
      <trkpt lat="43.21708" lon="6.31793">
        <ele>280</ele>
        <time>2010-10-10T08:03:04Z</time>
      </trkpt>
      <trkpt lat="43.21699" lon="6.31761">
        <ele>282</ele>
        <time>2010-10-10T08:03:19Z</time>
      </trkpt>
      <trkpt lat="43.21695" lon="6.31757">
        <ele>283</ele>
        <time>2010-10-10T08:03:23Z</time>
      </trkpt>
      <trkpt lat="43.21689" lon="6.3176">
        <ele>283</ele>
        <time>2010-10-10T08:03:27Z</time>
      </trkpt>
      <trkpt lat="43.21646" lon="6.31812">
        <ele>289</ele>
        <time>2010-10-10T08:04:01Z</time>
      </trkpt>
      <trkpt lat="43.21594" lon="6.31849">
        <ele>294</ele>
        <time>2010-10-10T08:04:32Z</time>
      </trkpt>
      <trkpt lat="43.21574" lon="6.31847">
        <ele>296</ele>
        <time>2010-10-10T08:04:45Z</time>
      </trkpt>
      <trkpt lat="43.21534" lon="6.31803">
        <ele>300</ele>
        <time>2010-10-10T08:05:16Z</time>
      </trkpt>
      <trkpt lat="43.21482" lon="6.31779">
        <ele>302</ele>
        <time>2010-10-10T08:05:46Z</time>
      </trkpt>
      <trkpt lat="43.21425" lon="6.3176">
        <ele>306</ele>
        <time>2010-10-10T08:06:18Z</time>
      </trkpt>
      <trkpt lat="43.2139" lon="6.31799">
        <ele>311</ele>
        <time>2010-10-10T08:06:44Z</time>
      </trkpt>
      <trkpt lat="43.21382" lon="6.31791">
        <ele>312</ele>
        <time>2010-10-10T08:06:50Z</time>
      </trkpt>
      <trkpt lat="43.2138" lon="6.31785">
        <ele>313</ele>
        <time>2010-10-10T08:06:52Z</time>
      </trkpt>
      <trkpt lat="43.21379" lon="6.31778">
        <ele>313</ele>
        <time>2010-10-10T08:06:55Z</time>
      </trkpt>
      <trkpt lat="43.21383" lon="6.31771">
        <ele>314</ele>
        <time>2010-10-10T08:06:59Z</time>
      </trkpt>
      <trkpt lat="43.21412" lon="6.31735">
        <ele>317</ele>
        <time>2010-10-10T08:07:18Z</time>
      </trkpt>
      <trkpt lat="43.21425" lon="6.31733">
        <ele>317</ele>
        <time>2010-10-10T08:07:25Z</time>
      </trkpt>
      <trkpt lat="43.21508" lon="6.31742">
        <ele>322</ele>
        <time>2010-10-10T08:07:56Z</time>
      </trkpt>
      <trkpt lat="43.21582" lon="6.3174">
        <ele>326</ele>
        <time>2010-10-10T08:08:27Z</time>
      </trkpt>
      <trkpt lat="43.21625" lon="6.31649">
        <ele>330</ele>
        <time>2010-10-10T08:08:58Z</time>
      </trkpt>
      <trkpt lat="43.2164" lon="6.31537">
        <ele>334</ele>
        <time>2010-10-10T08:09:31Z</time>
      </trkpt>
      <trkpt lat="43.21658" lon="6.31511">
        <ele>336</ele>
        <time>2010-10-10T08:09:42Z</time>
      </trkpt>
      <trkpt lat="43.21715" lon="6.31483">
        <ele>340</ele>
        <time>2010-10-10T08:10:12Z</time>
      </trkpt>
      <trkpt lat="43.21724" lon="6.31494">
        <ele>342</ele>
        <time>2010-10-10T08:10:18Z</time>
      </trkpt>
      <trkpt lat="43.21761" lon="6.31561">
        <ele>349</ele>
        <time>2010-10-10T08:10:49Z</time>
      </trkpt>
      <trkpt lat="43.21798" lon="6.3162">
        <ele>351</ele>
        <time>2010-10-10T08:11:16Z</time>
      </trkpt>
      <trkpt lat="43.21804" lon="6.31619">
        <ele>352</ele>
        <time>2010-10-10T08:11:19Z</time>
      </trkpt>
      <trkpt lat="43.2181" lon="6.31613">
        <ele>352</ele>
        <time>2010-10-10T08:11:23Z</time>
      </trkpt>
      <trkpt lat="43.2181" lon="6.31606">
        <ele>352</ele>
        <time>2010-10-10T08:11:26Z</time>
      </trkpt>
      <trkpt lat="43.21779" lon="6.31525">
        <ele>357</ele>
        <time>2010-10-10T08:12:01Z</time>
      </trkpt>
      <trkpt lat="43.21761" lon="6.31427">
        <ele>360</ele>
        <time>2010-10-10T08:12:36Z</time>
      </trkpt>
      <trkpt lat="43.21739" lon="6.31384">
        <ele>363</ele>
        <time>2010-10-10T08:12:57Z</time>
      </trkpt>
      <trkpt lat="43.2173" lon="6.3138">
        <ele>364</ele>
        <time>2010-10-10T08:13:03Z</time>
      </trkpt>
      <trkpt lat="43.21676" lon="6.31401">
        <ele>372</ele>
        <time>2010-10-10T08:13:36Z</time>
      </trkpt>
      <trkpt lat="43.21616" lon="6.31424">
        <ele>378</ele>
        <time>2010-10-10T08:14:08Z</time>
      </trkpt>
      <trkpt lat="43.2158" lon="6.31421">
        <ele>380</ele>
        <time>2010-10-10T08:14:31Z</time>
      </trkpt>
      <trkpt lat="43.21569" lon="6.31396">
        <ele>381</ele>
        <time>2010-10-10T08:14:43Z</time>
      </trkpt>
      <trkpt lat="43.21555" lon="6.31321">
        <ele>387</ele>
        <time>2010-10-10T08:15:18Z</time>
      </trkpt>
      <trkpt lat="43.21552" lon="6.31315">
        <ele>388</ele>
        <time>2010-10-10T08:15:25Z</time>
      </trkpt>
      <trkpt lat="43.21511" lon="6.31273">
        <ele>394</ele>
        <time>2010-10-10T08:16:07Z</time>
      </trkpt>
      <trkpt lat="43.2151" lon="6.31267">
        <ele>394</ele>
        <time>2010-10-10T08:16:34Z</time>
      </trkpt>
      <trkpt lat="43.21505" lon="6.31267">
        <ele>395</ele>
        <time>2010-10-10T08:16:45Z</time>
      </trkpt>
      <trkpt lat="43.21501" lon="6.31268">
        <ele>395</ele>
        <time>2010-10-10T08:16:59Z</time>
      </trkpt>
      <trkpt lat="43.215" lon="6.31275">
        <ele>395</ele>
        <time>2010-10-10T08:17:31Z</time>
      </trkpt>
      <trkpt lat="43.21505" lon="6.31272">
        <ele>395</ele>
        <time>2010-10-10T08:17:42Z</time>
      </trkpt>
      <trkpt lat="43.21505" lon="6.3127">
        <ele>397</ele>
        <time>2010-10-10T08:18:39Z</time>
      </trkpt>
      <trkpt lat="43.21456" lon="6.31179">
        <ele>402</ele>
        <time>2010-10-10T08:19:12Z</time>
      </trkpt>
      <trkpt lat="43.21415" lon="6.31107">
        <ele>404</ele>
        <time>2010-10-10T08:19:45Z</time>
      </trkpt>
      <trkpt lat="43.21372" lon="6.3112">
        <ele>407</ele>
        <time>2010-10-10T08:20:02Z</time>
      </trkpt>
      <trkpt lat="43.21323" lon="6.31184">
        <ele>412</ele>
        <time>2010-10-10T08:20:33Z</time>
      </trkpt>
      <trkpt lat="43.21257" lon="6.31199">
        <ele>417</ele>
        <time>2010-10-10T08:21:05Z</time>
      </trkpt>
      <trkpt lat="43.21196" lon="6.31221">
        <ele>422</ele>
        <time>2010-10-10T08:21:35Z</time>
      </trkpt>
      <trkpt lat="43.21146" lon="6.3127">
        <ele>428</ele>
        <time>2010-10-10T08:22:06Z</time>
      </trkpt>
      <trkpt lat="43.21123" lon="6.31311">
        <ele>431</ele>
        <time>2010-10-10T08:22:23Z</time>
      </trkpt>
      <trkpt lat="43.21113" lon="6.31311">
        <ele>432</ele>
        <time>2010-10-10T08:22:28Z</time>
      </trkpt>
      <trkpt lat="43.21108" lon="6.31306">
        <ele>432</ele>
        <time>2010-10-10T08:22:30Z</time>
      </trkpt>
      <trkpt lat="43.21084" lon="6.31275">
        <ele>433</ele>
        <time>2010-10-10T08:22:42Z</time>
      </trkpt>
      <trkpt lat="43.21081" lon="6.31271">
        <ele>434</ele>
        <time>2010-10-10T08:22:58Z</time>
      </trkpt>
      <trkpt lat="43.21076" lon="6.3127">
        <ele>434</ele>
        <time>2010-10-10T08:23:05Z</time>
      </trkpt>
      <trkpt lat="43.21007" lon="6.31217">
        <ele>440</ele>
        <time>2010-10-10T08:23:36Z</time>
      </trkpt>
      <trkpt lat="43.20934" lon="6.31144">
        <ele>444</ele>
        <time>2010-10-10T08:24:08Z</time>
      </trkpt>
      <trkpt lat="43.20897" lon="6.31095">
        <ele>447</ele>
        <time>2010-10-10T08:24:34Z</time>
      </trkpt>
      <trkpt lat="43.20878" lon="6.31099">
        <ele>448</ele>
        <time>2010-10-10T08:24:41Z</time>
      </trkpt>
      <trkpt lat="43.20797" lon="6.31158">
        <ele>453</ele>
        <time>2010-10-10T08:25:14Z</time>
      </trkpt>
      <trkpt lat="43.20761" lon="6.31168">
        <ele>455</ele>
        <time>2010-10-10T08:25:24Z</time>
      </trkpt>
      <trkpt lat="43.20696" lon="6.31184">
        <ele>466</ele>
        <time>2010-10-10T08:25:40Z</time>
      </trkpt>
      <trkpt lat="43.20653" lon="6.31193">
        <ele>466</ele>
        <time>2010-10-10T08:25:55Z</time>
      </trkpt>
      <trkpt lat="43.20553" lon="6.31089">
        <ele>466</ele>
        <time>2010-10-10T08:26:25Z</time>
      </trkpt>
      <trkpt lat="43.2051" lon="6.31081">
        <ele>467</ele>
        <time>2010-10-10T08:26:33Z</time>
      </trkpt>
      <trkpt lat="43.20435" lon="6.31124">
        <ele>469</ele>
        <time>2010-10-10T08:26:48Z</time>
      </trkpt>
      <trkpt lat="43.20344" lon="6.31284">
        <ele>467</ele>
        <time>2010-10-10T08:27:19Z</time>
      </trkpt>
      <trkpt lat="43.20256" lon="6.31364">
        <ele>467</ele>
        <time>2010-10-10T08:27:52Z</time>
      </trkpt>
      <trkpt lat="43.20246" lon="6.31461">
        <ele>469</ele>
        <time>2010-10-10T08:28:25Z</time>
      </trkpt>
      <trkpt lat="43.20247" lon="6.3155">
        <ele>473</ele>
        <time>2010-10-10T08:28:57Z</time>
      </trkpt>
      <trkpt lat="43.20246" lon="6.31565">
        <ele>474</ele>
        <time>2010-10-10T08:29:02Z</time>
      </trkpt>
      <trkpt lat="43.20251" lon="6.31666">
        <ele>478</ele>
        <time>2010-10-10T08:29:35Z</time>
      </trkpt>
      <trkpt lat="43.20236" lon="6.31762">
        <ele>481</ele>
        <time>2010-10-10T08:30:08Z</time>
      </trkpt>
      <trkpt lat="43.20226" lon="6.31841">
        <ele>485</ele>
        <time>2010-10-10T08:30:40Z</time>
      </trkpt>
      <trkpt lat="43.20229" lon="6.31943">
        <ele>492</ele>
        <time>2010-10-10T08:31:15Z</time>
      </trkpt>
      <trkpt lat="43.20224" lon="6.31969">
        <ele>494</ele>
        <time>2010-10-10T08:31:24Z</time>
      </trkpt>
      <trkpt lat="43.20228" lon="6.31983">
        <ele>495</ele>
        <time>2010-10-10T08:31:30Z</time>
      </trkpt>
      <trkpt lat="43.20234" lon="6.31984">
        <ele>495</ele>
        <time>2010-10-10T08:31:32Z</time>
      </trkpt>
      <trkpt lat="43.20311" lon="6.31987">
        <ele>500</ele>
        <time>2010-10-10T08:32:04Z</time>
      </trkpt>
      <trkpt lat="43.20327" lon="6.32011">
        <ele>501</ele>
        <time>2010-10-10T08:32:12Z</time>
      </trkpt>
      <trkpt lat="43.20333" lon="6.32043">
        <ele>502</ele>
        <time>2010-10-10T08:32:21Z</time>
      </trkpt>
      <trkpt lat="43.20304" lon="6.32133">
        <ele>506</ele>
        <time>2010-10-10T08:32:51Z</time>
      </trkpt>
      <trkpt lat="43.20304" lon="6.32142">
        <ele>506</ele>
        <time>2010-10-10T08:32:54Z</time>
      </trkpt>
      <trkpt lat="43.20307" lon="6.32154">
        <ele>506</ele>
        <time>2010-10-10T08:32:58Z</time>
      </trkpt>
      <trkpt lat="43.20324" lon="6.32166">
        <ele>507</ele>
        <time>2010-10-10T08:33:04Z</time>
      </trkpt>
      <trkpt lat="43.20374" lon="6.32218">
        <ele>512</ele>
        <time>2010-10-10T08:33:34Z</time>
      </trkpt>
      <trkpt lat="43.20412" lon="6.32285">
        <ele>518</ele>
        <time>2010-10-10T08:34:05Z</time>
      </trkpt>
      <trkpt lat="43.20421" lon="6.32354">
        <ele>521</ele>
        <time>2010-10-10T08:34:28Z</time>
      </trkpt>
      <trkpt lat="43.20417" lon="6.32367">
        <ele>522</ele>
        <time>2010-10-10T08:34:33Z</time>
      </trkpt>
      <trkpt lat="43.20412" lon="6.32371">
        <ele>522</ele>
        <time>2010-10-10T08:34:35Z</time>
      </trkpt>
      <trkpt lat="43.20391" lon="6.3237">
        <ele>523</ele>
        <time>2010-10-10T08:34:43Z</time>
      </trkpt>
      <trkpt lat="43.2034" lon="6.3232">
        <ele>528</ele>
        <time>2010-10-10T08:35:17Z</time>
      </trkpt>
      <trkpt lat="43.20279" lon="6.32314">
        <ele>533</ele>
        <time>2010-10-10T08:35:47Z</time>
      </trkpt>
      <trkpt lat="43.20259" lon="6.32312">
        <ele>535</ele>
        <time>2010-10-10T08:35:59Z</time>
      </trkpt>
      <trkpt lat="43.20253" lon="6.32319">
        <ele>536</ele>
        <time>2010-10-10T08:36:03Z</time>
      </trkpt>
      <trkpt lat="43.20251" lon="6.32333">
        <ele>536</ele>
        <time>2010-10-10T08:36:08Z</time>
      </trkpt>
      <trkpt lat="43.20253" lon="6.3234">
        <ele>537</ele>
        <time>2010-10-10T08:36:11Z</time>
      </trkpt>
      <trkpt lat="43.20292" lon="6.32397">
        <ele>541</ele>
        <time>2010-10-10T08:36:42Z</time>
      </trkpt>
      <trkpt lat="43.20298" lon="6.32417">
        <ele>543</ele>
        <time>2010-10-10T08:36:52Z</time>
      </trkpt>
      <trkpt lat="43.20295" lon="6.32424">
        <ele>544</ele>
        <time>2010-10-10T08:36:56Z</time>
      </trkpt>
      <trkpt lat="43.2029" lon="6.32422">
        <ele>544</ele>
        <time>2010-10-10T08:36:59Z</time>
      </trkpt>
      <trkpt lat="43.20239" lon="6.3239">
        <ele>548</ele>
        <time>2010-10-10T08:37:31Z</time>
      </trkpt>
      <trkpt lat="43.20181" lon="6.32369">
        <ele>552</ele>
        <time>2010-10-10T08:38:05Z</time>
      </trkpt>
      <trkpt lat="43.20177" lon="6.32363">
        <ele>553</ele>
        <time>2010-10-10T08:38:08Z</time>
      </trkpt>
      <trkpt lat="43.20169" lon="6.32308">
        <ele>555</ele>
        <time>2010-10-10T08:38:25Z</time>
      </trkpt>
      <trkpt lat="43.2018" lon="6.32202">
        <ele>558</ele>
        <time>2010-10-10T08:38:52Z</time>
      </trkpt>
      <trkpt lat="43.20173" lon="6.32194">
        <ele>559</ele>
        <time>2010-10-10T08:38:56Z</time>
      </trkpt>
      <trkpt lat="43.20167" lon="6.32198">
        <ele>559</ele>
        <time>2010-10-10T08:38:58Z</time>
      </trkpt>
      <trkpt lat="43.20158" lon="6.32214">
        <ele>559</ele>
        <time>2010-10-10T08:39:02Z</time>
      </trkpt>
      <trkpt lat="43.20136" lon="6.32324">
        <ele>563</ele>
        <time>2010-10-10T08:39:35Z</time>
      </trkpt>
      <trkpt lat="43.20152" lon="6.324">
        <ele>569</ele>
        <time>2010-10-10T08:40:06Z</time>
      </trkpt>
      <trkpt lat="43.20209" lon="6.32453">
        <ele>569</ele>
        <time>2010-10-10T08:40:37Z</time>
      </trkpt>
      <trkpt lat="43.20239" lon="6.32524">
        <ele>573</ele>
        <time>2010-10-10T08:41:08Z</time>
      </trkpt>
      <trkpt lat="43.20232" lon="6.32568">
        <ele>575</ele>
        <time>2010-10-10T08:41:24Z</time>
      </trkpt>
      <trkpt lat="43.20209" lon="6.32589">
        <ele>577</ele>
        <time>2010-10-10T08:41:37Z</time>
      </trkpt>
      <trkpt lat="43.20162" lon="6.32591">
        <ele>578</ele>
        <time>2010-10-10T08:41:55Z</time>
      </trkpt>
      <trkpt lat="43.20139" lon="6.32594">
        <ele>582</ele>
        <time>2010-10-10T08:42:01Z</time>
      </trkpt>
      <trkpt lat="43.20128" lon="6.32597">
        <ele>583</ele>
        <time>2010-10-10T08:42:04Z</time>
      </trkpt>
      <trkpt lat="43.20022" lon="6.32656">
        <ele>585</ele>
        <time>2010-10-10T08:42:36Z</time>
      </trkpt>
      <trkpt lat="43.19939" lon="6.32675">
        <ele>587</ele>
        <time>2010-10-10T08:43:08Z</time>
      </trkpt>
      <trkpt lat="43.19891" lon="6.32728">
        <ele>588</ele>
        <time>2010-10-10T08:43:26Z</time>
      </trkpt>
      <trkpt lat="43.19888" lon="6.32737">
        <ele>588</ele>
        <time>2010-10-10T08:43:28Z</time>
      </trkpt>
      <trkpt lat="43.19886" lon="6.32773">
        <ele>588</ele>
        <time>2010-10-10T08:43:35Z</time>
      </trkpt>
      <trkpt lat="43.19878" lon="6.32797">
        <ele>590</ele>
        <time>2010-10-10T08:43:40Z</time>
      </trkpt>
      <trkpt lat="43.19875" lon="6.32812">
        <ele>590</ele>
        <time>2010-10-10T08:43:43Z</time>
      </trkpt>
      <trkpt lat="43.19879" lon="6.32825">
        <ele>590</ele>
        <time>2010-10-10T08:43:47Z</time>
      </trkpt>
      <trkpt lat="43.19884" lon="6.32826">
        <ele>590</ele>
        <time>2010-10-10T08:43:49Z</time>
      </trkpt>
      <trkpt lat="43.19969" lon="6.32879">
        <ele>591</ele>
        <time>2010-10-10T08:44:20Z</time>
      </trkpt>
      <trkpt lat="43.19982" lon="6.32893">
        <ele>591</ele>
        <time>2010-10-10T08:44:26Z</time>
      </trkpt>
      <trkpt lat="43.19995" lon="6.32979">
        <ele>592</ele>
        <time>2010-10-10T08:44:51Z</time>
      </trkpt>
      <trkpt lat="43.19985" lon="6.3304">
        <ele>593</ele>
        <time>2010-10-10T08:45:05Z</time>
      </trkpt>
      <trkpt lat="43.19983" lon="6.33114">
        <ele>596</ele>
        <time>2010-10-10T08:45:17Z</time>
      </trkpt>
      <trkpt lat="43.19989" lon="6.33131">
        <ele>596</ele>
        <time>2010-10-10T08:45:20Z</time>
      </trkpt>
      <trkpt lat="43.19998" lon="6.33148">
        <ele>595</ele>
        <time>2010-10-10T08:45:23Z</time>
      </trkpt>
      <trkpt lat="43.20091" lon="6.33208">
        <ele>598</ele>
        <time>2010-10-10T08:45:53Z</time>
      </trkpt>
      <trkpt lat="43.20178" lon="6.33274">
        <ele>599</ele>
        <time>2010-10-10T08:46:19Z</time>
      </trkpt>
      <trkpt lat="43.20184" lon="6.33312">
        <ele>598</ele>
        <time>2010-10-10T08:46:25Z</time>
      </trkpt>
      <trkpt lat="43.20172" lon="6.33362">
        <ele>596</ele>
        <time>2010-10-10T08:46:33Z</time>
      </trkpt>
      <trkpt lat="43.20174" lon="6.33375">
        <ele>596</ele>
        <time>2010-10-10T08:46:35Z</time>
      </trkpt>
      <trkpt lat="43.20181" lon="6.33382">
        <ele>596</ele>
        <time>2010-10-10T08:46:37Z</time>
      </trkpt>
      <trkpt lat="43.2032" lon="6.33491">
        <ele>592</ele>
        <time>2010-10-10T08:47:09Z</time>
      </trkpt>
      <trkpt lat="43.20431" lon="6.33484">
        <ele>594</ele>
        <time>2010-10-10T08:47:33Z</time>
      </trkpt>
      <trkpt lat="43.2048" lon="6.33511">
        <ele>594</ele>
        <time>2010-10-10T08:47:43Z</time>
      </trkpt>
      <trkpt lat="43.20513" lon="6.33505">
        <ele>594</ele>
        <time>2010-10-10T08:47:53Z</time>
      </trkpt>
      <trkpt lat="43.20515" lon="6.33523">
        <ele>594</ele>
        <time>2010-10-10T08:48:01Z</time>
      </trkpt>
      <trkpt lat="43.20512" lon="6.33527">
        <ele>593</ele>
        <time>2010-10-10T08:48:03Z</time>
      </trkpt>
      <trkpt lat="43.20483" lon="6.33637">
        <ele>585</ele>
        <time>2010-10-10T08:48:34Z</time>
      </trkpt>
      <trkpt lat="43.20486" lon="6.33652">
        <ele>584</ele>
        <time>2010-10-10T08:48:38Z</time>
      </trkpt>
      <trkpt lat="43.20493" lon="6.33661">
        <ele>584</ele>
        <time>2010-10-10T08:48:42Z</time>
      </trkpt>
      <trkpt lat="43.20556" lon="6.33716">
        <ele>582</ele>
        <time>2010-10-10T08:49:12Z</time>
      </trkpt>
      <trkpt lat="43.20565" lon="6.33749">
        <ele>582</ele>
        <time>2010-10-10T08:49:25Z</time>
      </trkpt>
      <trkpt lat="43.20561" lon="6.33763">
        <ele>581</ele>
        <time>2010-10-10T08:49:30Z</time>
      </trkpt>
      <trkpt lat="43.20528" lon="6.33797">
        <ele>576</ele>
        <time>2010-10-10T08:49:48Z</time>
      </trkpt>
      <trkpt lat="43.20496" lon="6.3384">
        <ele>578</ele>
        <time>2010-10-10T08:50:01Z</time>
      </trkpt>
      <trkpt lat="43.20477" lon="6.33894">
        <ele>586</ele>
        <time>2010-10-10T08:50:12Z</time>
      </trkpt>
      <trkpt lat="43.20477" lon="6.33987">
        <ele>587</ele>
        <time>2010-10-10T08:50:29Z</time>
      </trkpt>
      <trkpt lat="43.20506" lon="6.3404">
        <ele>585</ele>
        <time>2010-10-10T08:50:39Z</time>
      </trkpt>
      <trkpt lat="43.20511" lon="6.34067">
        <ele>585</ele>
        <time>2010-10-10T08:50:44Z</time>
      </trkpt>
      <trkpt lat="43.20493" lon="6.34108">
        <ele>582</ele>
        <time>2010-10-10T08:50:51Z</time>
      </trkpt>
      <trkpt lat="43.20441" lon="6.34263">
        <ele>585</ele>
        <time>2010-10-10T08:51:23Z</time>
      </trkpt>
      <trkpt lat="43.20438" lon="6.34278">
        <ele>585</ele>
        <time>2010-10-10T08:51:26Z</time>
      </trkpt>
      <trkpt lat="43.20444" lon="6.34308">
        <ele>586</ele>
        <time>2010-10-10T08:51:33Z</time>
      </trkpt>
      <trkpt lat="43.20476" lon="6.34384">
        <ele>587</ele>
        <time>2010-10-10T08:51:57Z</time>
      </trkpt>
      <trkpt lat="43.20472" lon="6.34411">
        <ele>588</ele>
        <time>2010-10-10T08:52:05Z</time>
      </trkpt>
      <trkpt lat="43.20443" lon="6.34498">
        <ele>588</ele>
        <time>2010-10-10T08:52:37Z</time>
      </trkpt>
      <trkpt lat="43.20456" lon="6.34575">
        <ele>589</ele>
        <time>2010-10-10T08:53:03Z</time>
      </trkpt>
      <trkpt lat="43.205" lon="6.34636">
        <ele>591</ele>
        <time>2010-10-10T08:53:29Z</time>
      </trkpt>
      <trkpt lat="43.20545" lon="6.3464">
        <ele>592</ele>
        <time>2010-10-10T08:53:46Z</time>
      </trkpt>
      <trkpt lat="43.20564" lon="6.34674">
        <ele>594</ele>
        <time>2010-10-10T08:53:59Z</time>
      </trkpt>
      <trkpt lat="43.20569" lon="6.34722">
        <ele>595</ele>
        <time>2010-10-10T08:54:13Z</time>
      </trkpt>
      <trkpt lat="43.20567" lon="6.34752">
        <ele>596</ele>
        <time>2010-10-10T08:54:24Z</time>
      </trkpt>
      <trkpt lat="43.20572" lon="6.34762">
        <ele>598</ele>
        <time>2010-10-10T08:54:41Z</time>
      </trkpt>
      <trkpt lat="43.20647" lon="6.34843">
        <ele>600</ele>
        <time>2010-10-10T08:55:13Z</time>
      </trkpt>
      <trkpt lat="43.20674" lon="6.34859">
        <ele>601</ele>
        <time>2010-10-10T08:55:21Z</time>
      </trkpt>
      <trkpt lat="43.20725" lon="6.34952">
        <ele>600</ele>
        <time>2010-10-10T08:55:53Z</time>
      </trkpt>
      <trkpt lat="43.20784" lon="6.35041">
        <ele>598</ele>
        <time>2010-10-10T08:56:23Z</time>
      </trkpt>
      <trkpt lat="43.20793" lon="6.35042">
        <ele>595</ele>
        <time>2010-10-10T08:56:25Z</time>
      </trkpt>
      <trkpt lat="43.20828" lon="6.35038">
        <ele>594</ele>
        <time>2010-10-10T08:56:35Z</time>
      </trkpt>
      <trkpt lat="43.20852" lon="6.3507">
        <ele>592</ele>
        <time>2010-10-10T08:56:43Z</time>
      </trkpt>
      <trkpt lat="43.20854" lon="6.35086">
        <ele>591</ele>
        <time>2010-10-10T08:56:46Z</time>
      </trkpt>
      <trkpt lat="43.20876" lon="6.35144">
        <ele>594</ele>
        <time>2010-10-10T08:56:57Z</time>
      </trkpt>
      <trkpt lat="43.20919" lon="6.3516">
        <ele>596</ele>
        <time>2010-10-10T08:57:09Z</time>
      </trkpt>
      <trkpt lat="43.21006" lon="6.3519">
        <ele>597</ele>
        <time>2010-10-10T08:57:41Z</time>
      </trkpt>
      <trkpt lat="43.21058" lon="6.35258">
        <ele>599</ele>
        <time>2010-10-10T08:58:13Z</time>
      </trkpt>
      <trkpt lat="43.21089" lon="6.35305">
        <ele>602</ele>
        <time>2010-10-10T08:58:45Z</time>
      </trkpt>
      <trkpt lat="43.21151" lon="6.35351">
        <ele>607</ele>
        <time>2010-10-10T08:59:20Z</time>
      </trkpt>
      <trkpt lat="43.2123" lon="6.35359">
        <ele>611</ele>
        <time>2010-10-10T08:59:51Z</time>
      </trkpt>
      <trkpt lat="43.21246" lon="6.35374">
        <ele>615</ele>
        <time>2010-10-10T08:59:56Z</time>
      </trkpt>
      <trkpt lat="43.21261" lon="6.35403">
        <ele>615</ele>
        <time>2010-10-10T09:00:03Z</time>
      </trkpt>
      <trkpt lat="43.21263" lon="6.35448">
        <ele>617</ele>
        <time>2010-10-10T09:00:11Z</time>
      </trkpt>
      <trkpt lat="43.21278" lon="6.35497">
        <ele>626</ele>
        <time>2010-10-10T09:00:20Z</time>
      </trkpt>
      <trkpt lat="43.2131" lon="6.35578">
        <ele>628</ele>
        <time>2010-10-10T09:00:34Z</time>
      </trkpt>
      <trkpt lat="43.2132" lon="6.35599">
        <ele>627</ele>
        <time>2010-10-10T09:00:38Z</time>
      </trkpt>
      <trkpt lat="43.21339" lon="6.35649">
        <ele>629</ele>
        <time>2010-10-10T09:00:47Z</time>
      </trkpt>
      <trkpt lat="43.21403" lon="6.35789">
        <ele>629</ele>
        <time>2010-10-10T09:01:18Z</time>
      </trkpt>
      <trkpt lat="43.21465" lon="6.35901">
        <ele>626</ele>
        <time>2010-10-10T09:01:45Z</time>
      </trkpt>
      <trkpt lat="43.21473" lon="6.35914">
        <ele>626</ele>
        <time>2010-10-10T09:01:48Z</time>
      </trkpt>
      <trkpt lat="43.215" lon="6.35953">
        <ele>625</ele>
        <time>2010-10-10T09:01:56Z</time>
      </trkpt>
      <trkpt lat="43.21547" lon="6.3603">
        <ele>631</ele>
        <time>2010-10-10T09:02:11Z</time>
      </trkpt>
      <trkpt lat="43.21591" lon="6.36097">
        <ele>631</ele>
        <time>2010-10-10T09:02:25Z</time>
      </trkpt>
      <trkpt lat="43.21601" lon="6.3611">
        <ele>629</ele>
        <time>2010-10-10T09:02:28Z</time>
      </trkpt>
      <trkpt lat="43.21611" lon="6.36122">
        <ele>628</ele>
        <time>2010-10-10T09:02:31Z</time>
      </trkpt>
      <trkpt lat="43.21687" lon="6.36192">
        <ele>628</ele>
        <time>2010-10-10T09:02:53Z</time>
      </trkpt>
      <trkpt lat="43.2171" lon="6.36193">
        <ele>628</ele>
        <time>2010-10-10T09:02:58Z</time>
      </trkpt>
      <trkpt lat="43.21729" lon="6.36212">
        <ele>629</ele>
        <time>2010-10-10T09:03:04Z</time>
      </trkpt>
      <trkpt lat="43.21737" lon="6.36242">
        <ele>629</ele>
        <time>2010-10-10T09:03:10Z</time>
      </trkpt>
      <trkpt lat="43.21739" lon="6.36255">
        <ele>625</ele>
        <time>2010-10-10T09:03:12Z</time>
      </trkpt>
      <trkpt lat="43.2174" lon="6.36272">
        <ele>625</ele>
        <time>2010-10-10T09:03:15Z</time>
      </trkpt>
      <trkpt lat="43.21739" lon="6.3632">
        <ele>618</ele>
        <time>2010-10-10T09:03:24Z</time>
      </trkpt>
      <trkpt lat="43.21733" lon="6.36371">
        <ele>618</ele>
        <time>2010-10-10T09:03:35Z</time>
      </trkpt>
      <trkpt lat="43.21736" lon="6.36385">
        <ele>618</ele>
        <time>2010-10-10T09:03:38Z</time>
      </trkpt>
      <trkpt lat="43.21744" lon="6.36393">
        <ele>618</ele>
        <time>2010-10-10T09:03:41Z</time>
      </trkpt>
      <trkpt lat="43.21785" lon="6.36412">
        <ele>616</ele>
        <time>2010-10-10T09:03:55Z</time>
      </trkpt>
      <trkpt lat="43.21797" lon="6.36437">
        <ele>614</ele>
        <time>2010-10-10T09:04:01Z</time>
      </trkpt>
      <trkpt lat="43.21806" lon="6.36463">
        <ele>614</ele>
        <time>2010-10-10T09:04:09Z</time>
      </trkpt>
      <trkpt lat="43.21828" lon="6.36471">
        <ele>613</ele>
        <time>2010-10-10T09:04:16Z</time>
      </trkpt>
      <trkpt lat="43.21844" lon="6.36474">
        <ele>612</ele>
        <time>2010-10-10T09:04:20Z</time>
      </trkpt>
      <trkpt lat="43.21853" lon="6.3648">
        <ele>612</ele>
        <time>2010-10-10T09:04:24Z</time>
      </trkpt>
      <trkpt lat="43.21856" lon="6.36494">
        <ele>612</ele>
        <time>2010-10-10T09:04:28Z</time>
      </trkpt>
      <trkpt lat="43.21864" lon="6.36526">
        <ele>612</ele>
        <time>2010-10-10T09:04:36Z</time>
      </trkpt>
      <trkpt lat="43.21872" lon="6.36535">
        <ele>612</ele>
        <time>2010-10-10T09:04:40Z</time>
      </trkpt>
      <trkpt lat="43.21918" lon="6.36563">
        <ele>610</ele>
        <time>2010-10-10T09:04:57Z</time>
      </trkpt>
      <trkpt lat="43.21923" lon="6.36574">
        <ele>609</ele>
        <time>2010-10-10T09:05:00Z</time>
      </trkpt>
      <trkpt lat="43.21924" lon="6.366">
        <ele>609</ele>
        <time>2010-10-10T09:05:06Z</time>
      </trkpt>
      <trkpt lat="43.2192" lon="6.36615">
        <ele>609</ele>
        <time>2010-10-10T09:05:09Z</time>
      </trkpt>
      <trkpt lat="43.21916" lon="6.36632">
        <ele>607</ele>
        <time>2010-10-10T09:05:12Z</time>
      </trkpt>
      <trkpt lat="43.21911" lon="6.36657">
        <ele>606</ele>
        <time>2010-10-10T09:05:24Z</time>
      </trkpt>
      <trkpt lat="43.21916" lon="6.36662">
        <ele>606</ele>
        <time>2010-10-10T09:05:30Z</time>
      </trkpt>
      <trkpt lat="43.21919" lon="6.36669">
        <ele>606</ele>
        <time>2010-10-10T09:05:38Z</time>
      </trkpt>
      <trkpt lat="43.21934" lon="6.36672">
        <ele>605</ele>
        <time>2010-10-10T09:05:58Z</time>
      </trkpt>
      <trkpt lat="43.21938" lon="6.3667">
        <ele>605</ele>
        <time>2010-10-10T09:08:09Z</time>
      </trkpt>
      <trkpt lat="43.2197" lon="6.36671">
        <ele>604</ele>
        <time>2010-10-10T09:08:47Z</time>
      </trkpt>
      <trkpt lat="43.2199" lon="6.36663">
        <ele>603</ele>
        <time>2010-10-10T09:09:19Z</time>
      </trkpt>
      <trkpt lat="43.21994" lon="6.36649">
        <ele>602</ele>
        <time>2010-10-10T09:09:35Z</time>
      </trkpt>
      <trkpt lat="43.21999" lon="6.36646">
        <ele>601</ele>
        <time>2010-10-10T09:09:41Z</time>
      </trkpt>
      <trkpt lat="43.22003" lon="6.36643">
        <ele>600</ele>
        <time>2010-10-10T09:09:47Z</time>
      </trkpt>
      <trkpt lat="43.22007" lon="6.36636">
        <ele>599</ele>
        <time>2010-10-10T09:10:01Z</time>
      </trkpt>
      <trkpt lat="43.22027" lon="6.36613">
        <ele>586</ele>
        <time>2010-10-10T09:10:42Z</time>
      </trkpt>
      <trkpt lat="43.22036" lon="6.3661">
        <ele>583</ele>
        <time>2010-10-10T09:10:55Z</time>
      </trkpt>
      <trkpt lat="43.22054" lon="6.36615">
        <ele>579</ele>
        <time>2010-10-10T09:11:24Z</time>
      </trkpt>
      <trkpt lat="43.22065" lon="6.36608">
        <ele>575</ele>
        <time>2010-10-10T09:11:36Z</time>
      </trkpt>
      <trkpt lat="43.22086" lon="6.36616">
        <ele>568</ele>
        <time>2010-10-10T09:12:03Z</time>
      </trkpt>
      <trkpt lat="43.22092" lon="6.36625">
        <ele>566</ele>
        <time>2010-10-10T09:12:13Z</time>
      </trkpt>
      <trkpt lat="43.22136" lon="6.36652">
        <ele>563</ele>
        <time>2010-10-10T09:12:45Z</time>
      </trkpt>
      <trkpt lat="43.22194" lon="6.36676">
        <ele>554</ele>
        <time>2010-10-10T09:13:20Z</time>
      </trkpt>
      <trkpt lat="43.22254" lon="6.36684">
        <ele>545</ele>
        <time>2010-10-10T09:13:53Z</time>
      </trkpt>
      <trkpt lat="43.22304" lon="6.36692">
        <ele>537</ele>
        <time>2010-10-10T09:14:23Z</time>
      </trkpt>
      <trkpt lat="43.22345" lon="6.36703">
        <ele>527</ele>
        <time>2010-10-10T09:15:13Z</time>
      </trkpt>
      <trkpt lat="43.22394" lon="6.3672">
        <ele>524</ele>
        <time>2010-10-10T09:15:34Z</time>
      </trkpt>
      <trkpt lat="43.22497" lon="6.36787">
        <ele>519</ele>
        <time>2010-10-10T09:16:06Z</time>
      </trkpt>
      <trkpt lat="43.22537" lon="6.36783">
        <ele>513</ele>
        <time>2010-10-10T09:16:23Z</time>
      </trkpt>
      <trkpt lat="43.22542" lon="6.36789">
        <ele>508</ele>
        <time>2010-10-10T09:16:55Z</time>
      </trkpt>
      <trkpt lat="43.22545" lon="6.36787">
        <ele>504</ele>
        <time>2010-10-10T09:17:18Z</time>
      </trkpt>
      <trkpt lat="43.22565" lon="6.3678">
        <ele>493</ele>
        <time>2010-10-10T09:17:54Z</time>
      </trkpt>
      <trkpt lat="43.22591" lon="6.36753">
        <ele>483</ele>
        <time>2010-10-10T09:18:26Z</time>
      </trkpt>
      <trkpt lat="43.22606" lon="6.3673">
        <ele>477</ele>
        <time>2010-10-10T09:19:01Z</time>
      </trkpt>
      <trkpt lat="43.22613" lon="6.36722">
        <ele>476</ele>
        <time>2010-10-10T09:19:13Z</time>
      </trkpt>
      <trkpt lat="43.22634" lon="6.36648">
        <ele>471</ele>
        <time>2010-10-10T09:19:47Z</time>
      </trkpt>
      <trkpt lat="43.22637" lon="6.36633">
        <ele>470</ele>
        <time>2010-10-10T09:19:53Z</time>
      </trkpt>
      <trkpt lat="43.22644" lon="6.36623">
        <ele>467</ele>
        <time>2010-10-10T09:20:03Z</time>
      </trkpt>
      <trkpt lat="43.22663" lon="6.36603">
        <ele>460</ele>
        <time>2010-10-10T09:20:31Z</time>
      </trkpt>
      <trkpt lat="43.22722" lon="6.36558">
        <ele>456</ele>
        <time>2010-10-10T09:21:03Z</time>
      </trkpt>
      <trkpt lat="43.22769" lon="6.36547">
        <ele>452</ele>
        <time>2010-10-10T09:21:28Z</time>
      </trkpt>
      <trkpt lat="43.22848" lon="6.36557">
        <ele>450</ele>
        <time>2010-10-10T09:21:59Z</time>
      </trkpt>
      <trkpt lat="43.22929" lon="6.36556">
        <ele>451</ele>
        <time>2010-10-10T09:22:31Z</time>
      </trkpt>
      <trkpt lat="43.22951" lon="6.36575">
        <ele>451</ele>
        <time>2010-10-10T09:22:41Z</time>
      </trkpt>
      <trkpt lat="43.23013" lon="6.36618">
        <ele>448</ele>
        <time>2010-10-10T09:23:14Z</time>
      </trkpt>
      <trkpt lat="43.2304" lon="6.36654">
        <ele>445</ele>
        <time>2010-10-10T09:23:29Z</time>
      </trkpt>
      <trkpt lat="43.23127" lon="6.36666">
        <ele>433</ele>
        <time>2010-10-10T09:24:01Z</time>
      </trkpt>
      <trkpt lat="43.23201" lon="6.36628">
        <ele>420</ele>
        <time>2010-10-10T09:24:31Z</time>
      </trkpt>
      <trkpt lat="43.23259" lon="6.36554">
        <ele>402</ele>
        <time>2010-10-10T09:25:11Z</time>
      </trkpt>
      <trkpt lat="43.23264" lon="6.36552">
        <ele>402</ele>
        <time>2010-10-10T09:25:13Z</time>
      </trkpt>
      <trkpt lat="43.23262" lon="6.36554">
        <ele>398</ele>
        <time>2010-10-10T09:25:47Z</time>
      </trkpt>
      <trkpt lat="43.23161" lon="6.36557">
        <ele>384</ele>
        <time>2010-10-10T09:26:19Z</time>
      </trkpt>
      <trkpt lat="43.23153" lon="6.36547">
        <ele>384</ele>
        <time>2010-10-10T09:26:23Z</time>
      </trkpt>
      <trkpt lat="43.23153" lon="6.36538">
        <ele>383</ele>
        <time>2010-10-10T09:26:25Z</time>
      </trkpt>
      <trkpt lat="43.23156" lon="6.36488">
        <ele>381</ele>
        <time>2010-10-10T09:26:35Z</time>
      </trkpt>
      <trkpt lat="43.23153" lon="6.36447">
        <ele>375</ele>
        <time>2010-10-10T09:26:42Z</time>
      </trkpt>
      <trkpt lat="43.23146" lon="6.36434">
        <ele>374</ele>
        <time>2010-10-10T09:26:45Z</time>
      </trkpt>
      <trkpt lat="43.23125" lon="6.36425">
        <ele>374</ele>
        <time>2010-10-10T09:26:51Z</time>
      </trkpt>
      <trkpt lat="43.23083" lon="6.36421">
        <ele>373</ele>
        <time>2010-10-10T09:27:06Z</time>
      </trkpt>
      <trkpt lat="43.23077" lon="6.36402">
        <ele>372</ele>
        <time>2010-10-10T09:27:13Z</time>
      </trkpt>
      <trkpt lat="43.23017" lon="6.36355">
        <ele>372</ele>
        <time>2010-10-10T09:27:38Z</time>
      </trkpt>
      <trkpt lat="43.22946" lon="6.36393">
        <ele>373</ele>
        <time>2010-10-10T09:28:09Z</time>
      </trkpt>
      <trkpt lat="43.22884" lon="6.36404">
        <ele>376</ele>
        <time>2010-10-10T09:28:34Z</time>
      </trkpt>
      <trkpt lat="43.22881" lon="6.36399">
        <ele>376</ele>
        <time>2010-10-10T09:28:36Z</time>
      </trkpt>
      <trkpt lat="43.22881" lon="6.3639">
        <ele>376</ele>
        <time>2010-10-10T09:28:39Z</time>
      </trkpt>
      <trkpt lat="43.22886" lon="6.36383">
        <ele>376</ele>
        <time>2010-10-10T09:28:42Z</time>
      </trkpt>
      <trkpt lat="43.22933" lon="6.36294">
        <ele>381</ele>
        <time>2010-10-10T09:29:13Z</time>
      </trkpt>
      <trkpt lat="43.22959" lon="6.36212">
        <ele>384</ele>
        <time>2010-10-10T09:29:44Z</time>
      </trkpt>
      <trkpt lat="43.2297" lon="6.36152">
        <ele>386</ele>
        <time>2010-10-10T09:30:11Z</time>
      </trkpt>
      <trkpt lat="43.22977" lon="6.36143">
        <ele>387</ele>
        <time>2010-10-10T09:30:16Z</time>
      </trkpt>
      <trkpt lat="43.22992" lon="6.3614">
        <ele>388</ele>
        <time>2010-10-10T09:30:24Z</time>
      </trkpt>
      <trkpt lat="43.23066" lon="6.36138">
        <ele>391</ele>
        <time>2010-10-10T09:30:57Z</time>
      </trkpt>
      <trkpt lat="43.23106" lon="6.36131">
        <ele>392</ele>
        <time>2010-10-10T09:31:14Z</time>
      </trkpt>
      <trkpt lat="43.23118" lon="6.3611">
        <ele>392</ele>
        <time>2010-10-10T09:31:22Z</time>
      </trkpt>
      <trkpt lat="43.23139" lon="6.36002">
        <ele>393</ele>
        <time>2010-10-10T09:31:54Z</time>
      </trkpt>
      <trkpt lat="43.23132" lon="6.35897">
        <ele>397</ele>
        <time>2010-10-10T09:32:27Z</time>
      </trkpt>
      <trkpt lat="43.23158" lon="6.35781">
        <ele>403</ele>
        <time>2010-10-10T09:32:59Z</time>
      </trkpt>
      <trkpt lat="43.23158" lon="6.35751">
        <ele>404</ele>
        <time>2010-10-10T09:33:07Z</time>
      </trkpt>
      <trkpt lat="43.23142" lon="6.35725">
        <ele>405</ele>
        <time>2010-10-10T09:33:15Z</time>
      </trkpt>
      <trkpt lat="43.23127" lon="6.35719">
        <ele>405</ele>
        <time>2010-10-10T09:33:21Z</time>
      </trkpt>
      <trkpt lat="43.23044" lon="6.35735">
        <ele>407</ele>
        <time>2010-10-10T09:33:52Z</time>
      </trkpt>
      <trkpt lat="43.22971" lon="6.35714">
        <ele>410</ele>
        <time>2010-10-10T09:34:16Z</time>
      </trkpt>
      <trkpt lat="43.22954" lon="6.3568">
        <ele>411</ele>
        <time>2010-10-10T09:34:26Z</time>
      </trkpt>
      <trkpt lat="43.22944" lon="6.35673">
        <ele>412</ele>
        <time>2010-10-10T09:34:30Z</time>
      </trkpt>
      <trkpt lat="43.22866" lon="6.35648">
        <ele>415</ele>
        <time>2010-10-10T09:35:01Z</time>
      </trkpt>
      <trkpt lat="43.2286" lon="6.3565">
        <ele>416</ele>
        <time>2010-10-10T09:35:04Z</time>
      </trkpt>
      <trkpt lat="43.22857" lon="6.35657">
        <ele>416</ele>
        <time>2010-10-10T09:35:07Z</time>
      </trkpt>
      <trkpt lat="43.22858" lon="6.35666">
        <ele>416</ele>
        <time>2010-10-10T09:35:10Z</time>
      </trkpt>
      <trkpt lat="43.22863" lon="6.35671">
        <ele>417</ele>
        <time>2010-10-10T09:35:12Z</time>
      </trkpt>
      <trkpt lat="43.22895" lon="6.35721">
        <ele>419</ele>
        <time>2010-10-10T09:35:35Z</time>
      </trkpt>
      <trkpt lat="43.22892" lon="6.35792">
        <ele>420</ele>
        <time>2010-10-10T09:35:54Z</time>
      </trkpt>
      <trkpt lat="43.22849" lon="6.35889">
        <ele>425</ele>
        <time>2010-10-10T09:36:23Z</time>
      </trkpt>
      <trkpt lat="43.22823" lon="6.35886">
        <ele>426</ele>
        <time>2010-10-10T09:36:31Z</time>
      </trkpt>
      <trkpt lat="43.22739" lon="6.35859">
        <ele>430</ele>
        <time>2010-10-10T09:37:01Z</time>
      </trkpt>
      <trkpt lat="43.22684" lon="6.35787">
        <ele>434</ele>
        <time>2010-10-10T09:37:32Z</time>
      </trkpt>
      <trkpt lat="43.2266" lon="6.35762">
        <ele>435</ele>
        <time>2010-10-10T09:38:06Z</time>
      </trkpt>
      <trkpt lat="43.2266" lon="6.35753">
        <ele>437</ele>
        <time>2010-10-10T09:38:24Z</time>
      </trkpt>
      <trkpt lat="43.22657" lon="6.35737">
        <ele>440</ele>
        <time>2010-10-10T09:38:46Z</time>
      </trkpt>
      <trkpt lat="43.22649" lon="6.3571">
        <ele>441</ele>
        <time>2010-10-10T09:38:57Z</time>
      </trkpt>
      <trkpt lat="43.22649" lon="6.35692">
        <ele>441</ele>
        <time>2010-10-10T09:39:22Z</time>
      </trkpt>
      <trkpt lat="43.22644" lon="6.35686">
        <ele>441</ele>
        <time>2010-10-10T09:39:33Z</time>
      </trkpt>
      <trkpt lat="43.22637" lon="6.35677">
        <ele>441</ele>
        <time>2010-10-10T09:39:41Z</time>
      </trkpt>
      <trkpt lat="43.22635" lon="6.35668">
        <ele>441</ele>
        <time>2010-10-10T09:39:48Z</time>
      </trkpt>
      <trkpt lat="43.22639" lon="6.35655">
        <ele>441</ele>
        <time>2010-10-10T09:39:58Z</time>
      </trkpt>
      <trkpt lat="43.22651" lon="6.35623">
        <ele>442</ele>
        <time>2010-10-10T09:40:36Z</time>
      </trkpt>
      <trkpt lat="43.22661" lon="6.3562">
        <ele>442</ele>
        <time>2010-10-10T09:40:45Z</time>
      </trkpt>
      <trkpt lat="43.2268" lon="6.35625">
        <ele>442</ele>
        <time>2010-10-10T09:40:55Z</time>
      </trkpt>
      <trkpt lat="43.22717" lon="6.35669">
        <ele>444</ele>
        <time>2010-10-10T09:41:22Z</time>
      </trkpt>
      <trkpt lat="43.22723" lon="6.35661">
        <ele>445</ele>
        <time>2010-10-10T09:41:28Z</time>
      </trkpt>
      <trkpt lat="43.22764" lon="6.35551">
        <ele>444</ele>
        <time>2010-10-10T09:42:00Z</time>
      </trkpt>
      <trkpt lat="43.2282" lon="6.35495">
        <ele>442</ele>
        <time>2010-10-10T09:42:24Z</time>
      </trkpt>
      <trkpt lat="43.2283" lon="6.355">
        <ele>442</ele>
        <time>2010-10-10T09:42:33Z</time>
      </trkpt>
      <trkpt lat="43.2287" lon="6.35522">
        <ele>438</ele>
        <time>2010-10-10T09:43:03Z</time>
      </trkpt>
      <trkpt lat="43.22929" lon="6.35565">
        <ele>435</ele>
        <time>2010-10-10T09:43:32Z</time>
      </trkpt>
      <trkpt lat="43.22937" lon="6.35556">
        <ele>434</ele>
        <time>2010-10-10T09:43:37Z</time>
      </trkpt>
      <trkpt lat="43.22937" lon="6.35543">
        <ele>434</ele>
        <time>2010-10-10T09:43:41Z</time>
      </trkpt>
      <trkpt lat="43.2292" lon="6.35467">
        <ele>429</ele>
        <time>2010-10-10T09:44:06Z</time>
      </trkpt>
      <trkpt lat="43.22923" lon="6.35461">
        <ele>428</ele>
        <time>2010-10-10T09:44:09Z</time>
      </trkpt>
      <trkpt lat="43.22929" lon="6.35459">
        <ele>427</ele>
        <time>2010-10-10T09:44:12Z</time>
      </trkpt>
      <trkpt lat="43.22971" lon="6.35443">
        <ele>424</ele>
        <time>2010-10-10T09:44:30Z</time>
      </trkpt>
      <trkpt lat="43.22981" lon="6.35408">
        <ele>422</ele>
        <time>2010-10-10T09:44:46Z</time>
      </trkpt>
      <trkpt lat="43.22986" lon="6.3538">
        <ele>421</ele>
        <time>2010-10-10T09:44:56Z</time>
      </trkpt>
      <trkpt lat="43.23025" lon="6.35326">
        <ele>419</ele>
        <time>2010-10-10T09:45:13Z</time>
      </trkpt>
      <trkpt lat="43.2303" lon="6.35325">
        <ele>418</ele>
        <time>2010-10-10T09:45:17Z</time>
      </trkpt>
      <trkpt lat="43.23033" lon="6.35332">
        <ele>416</ele>
        <time>2010-10-10T09:45:28Z</time>
      </trkpt>
      <trkpt lat="43.23045" lon="6.35375">
        <ele>413</ele>
        <time>2010-10-10T09:45:43Z</time>
      </trkpt>
      <trkpt lat="43.23088" lon="6.35408">
        <ele>410</ele>
        <time>2010-10-10T09:46:06Z</time>
      </trkpt>
      <trkpt lat="43.23094" lon="6.35406">
        <ele>410</ele>
        <time>2010-10-10T09:46:09Z</time>
      </trkpt>
      <trkpt lat="43.23161" lon="6.35343">
        <ele>407</ele>
        <time>2010-10-10T09:46:40Z</time>
      </trkpt>
      <trkpt lat="43.23163" lon="6.35336">
        <ele>407</ele>
        <time>2010-10-10T09:46:42Z</time>
      </trkpt>
      <trkpt lat="43.23161" lon="6.35326">
        <ele>407</ele>
        <time>2010-10-10T09:46:45Z</time>
      </trkpt>
      <trkpt lat="43.23141" lon="6.35241">
        <ele>403</ele>
        <time>2010-10-10T09:47:10Z</time>
      </trkpt>
      <trkpt lat="43.23145" lon="6.35226">
        <ele>403</ele>
        <time>2010-10-10T09:47:15Z</time>
      </trkpt>
      <trkpt lat="43.23163" lon="6.35212">
        <ele>403</ele>
        <time>2010-10-10T09:47:21Z</time>
      </trkpt>
      <trkpt lat="43.23223" lon="6.35194">
        <ele>401</ele>
        <time>2010-10-10T09:47:53Z</time>
      </trkpt>
      <trkpt lat="43.23291" lon="6.3517">
        <ele>398</ele>
        <time>2010-10-10T09:48:25Z</time>
      </trkpt>
      <trkpt lat="43.233" lon="6.35166">
        <ele>398</ele>
        <time>2010-10-10T09:48:30Z</time>
      </trkpt>
      <trkpt lat="43.23312" lon="6.35157">
        <ele>396</ele>
        <time>2010-10-10T09:48:57Z</time>
      </trkpt>
      <trkpt lat="43.23314" lon="6.35149">
        <ele>395</ele>
        <time>2010-10-10T09:49:00Z</time>
      </trkpt>
      <trkpt lat="43.23313" lon="6.35142">
        <ele>395</ele>
        <time>2010-10-10T09:49:02Z</time>
      </trkpt>
      <trkpt lat="43.23304" lon="6.35109">
        <ele>393</ele>
        <time>2010-10-10T09:49:13Z</time>
      </trkpt>
      <trkpt lat="43.23312" lon="6.35082">
        <ele>391</ele>
        <time>2010-10-10T09:49:23Z</time>
      </trkpt>
      <trkpt lat="43.23351" lon="6.35029">
        <ele>390</ele>
        <time>2010-10-10T09:49:41Z</time>
      </trkpt>
      <trkpt lat="43.23354" lon="6.35015">
        <ele>389</ele>
        <time>2010-10-10T09:49:44Z</time>
      </trkpt>
      <trkpt lat="43.23351" lon="6.34999">
        <ele>388</ele>
        <time>2010-10-10T09:49:47Z</time>
      </trkpt>
      <trkpt lat="43.23343" lon="6.34985">
        <ele>387</ele>
        <time>2010-10-10T09:49:51Z</time>
      </trkpt>
      <trkpt lat="43.23343" lon="6.3497">
        <ele>385</ele>
        <time>2010-10-10T09:49:56Z</time>
      </trkpt>
      <trkpt lat="43.23353" lon="6.34945">
        <ele>383</ele>
        <time>2010-10-10T09:50:05Z</time>
      </trkpt>
      <trkpt lat="43.23429" lon="6.34866">
        <ele>379</ele>
        <time>2010-10-10T09:50:36Z</time>
      </trkpt>
      <trkpt lat="43.23489" lon="6.34813">
        <ele>379</ele>
        <time>2010-10-10T09:51:02Z</time>
      </trkpt>
      <trkpt lat="43.23505" lon="6.34814">
        <ele>379</ele>
        <time>2010-10-10T09:51:08Z</time>
      </trkpt>
      <trkpt lat="43.2351" lon="6.34809">
        <ele>379</ele>
        <time>2010-10-10T09:51:11Z</time>
      </trkpt>
      <trkpt lat="43.23512" lon="6.34802">
        <ele>379</ele>
        <time>2010-10-10T09:51:13Z</time>
      </trkpt>
      <trkpt lat="43.23503" lon="6.34759">
        <ele>378</ele>
        <time>2010-10-10T09:51:24Z</time>
      </trkpt>
      <trkpt lat="43.23509" lon="6.34753">
        <ele>377</ele>
        <time>2010-10-10T09:51:30Z</time>
      </trkpt>
      <trkpt lat="43.23514" lon="6.34756">
        <ele>376</ele>
        <time>2010-10-10T09:51:33Z</time>
      </trkpt>
      <trkpt lat="43.23583" lon="6.34817">
        <ele>374</ele>
        <time>2010-10-10T09:52:05Z</time>
      </trkpt>
      <trkpt lat="43.23618" lon="6.34845">
        <ele>374</ele>
        <time>2010-10-10T09:52:34Z</time>
      </trkpt>
      <trkpt lat="43.2362" lon="6.34851">
        <ele>374</ele>
        <time>2010-10-10T09:52:39Z</time>
      </trkpt>
      <trkpt lat="43.23681" lon="6.34898">
        <ele>377</ele>
        <time>2010-10-10T09:53:07Z</time>
      </trkpt>
      <trkpt lat="43.23693" lon="6.34969">
        <ele>379</ele>
        <time>2010-10-10T09:53:32Z</time>
      </trkpt>
      <trkpt lat="43.23691" lon="6.34976">
        <ele>379</ele>
        <time>2010-10-10T09:53:51Z</time>
      </trkpt>
      <trkpt lat="43.23683" lon="6.35048">
        <ele>378</ele>
        <time>2010-10-10T09:54:11Z</time>
      </trkpt>
      <trkpt lat="43.23693" lon="6.35175">
        <ele>375</ele>
        <time>2010-10-10T09:54:37Z</time>
      </trkpt>
      <trkpt lat="43.23687" lon="6.3521">
        <ele>373</ele>
        <time>2010-10-10T09:54:43Z</time>
      </trkpt>
      <trkpt lat="43.23669" lon="6.35276">
        <ele>376</ele>
        <time>2010-10-10T09:54:55Z</time>
      </trkpt>
      <trkpt lat="43.23663" lon="6.35295">
        <ele>375</ele>
        <time>2010-10-10T09:54:58Z</time>
      </trkpt>
      <trkpt lat="43.23664" lon="6.35394">
        <ele>372</ele>
        <time>2010-10-10T09:55:12Z</time>
      </trkpt>
      <trkpt lat="43.23695" lon="6.35607">
        <ele>367</ele>
        <time>2010-10-10T09:55:46Z</time>
      </trkpt>
      <trkpt lat="43.23691" lon="6.35615">
        <ele>367</ele>
        <time>2010-10-10T09:56:03Z</time>
      </trkpt>
      <trkpt lat="43.23687" lon="6.35618">
        <ele>366</ele>
        <time>2010-10-10T09:56:05Z</time>
      </trkpt>
      <trkpt lat="43.23684" lon="6.35627">
        <ele>366</ele>
        <time>2010-10-10T09:56:08Z</time>
      </trkpt>
      <trkpt lat="43.23689" lon="6.35633">
        <ele>366</ele>
        <time>2010-10-10T09:56:11Z</time>
      </trkpt>
      <trkpt lat="43.23699" lon="6.35635">
        <ele>366</ele>
        <time>2010-10-10T09:56:16Z</time>
      </trkpt>
      <trkpt lat="43.23758" lon="6.356">
        <ele>364</ele>
        <time>2010-10-10T09:56:39Z</time>
      </trkpt>
      <trkpt lat="43.23765" lon="6.35598">
        <ele>363</ele>
        <time>2010-10-10T09:58:43Z</time>
      </trkpt>
      <trkpt lat="43.23769" lon="6.356">
        <ele>363</ele>
        <time>2010-10-10T09:58:52Z</time>
      </trkpt>
      <trkpt lat="43.23769" lon="6.35601">
        <ele>362</ele>
        <time>2010-10-10T10:00:36Z</time>
      </trkpt>
      <trkpt lat="43.2377" lon="6.356">
        <ele>362</ele>
        <time>2010-10-10T10:02:13Z</time>
      </trkpt>
      <trkpt lat="43.23781" lon="6.35594">
        <ele>362</ele>
        <time>2010-10-10T10:02:24Z</time>
      </trkpt>
      <trkpt lat="43.23786" lon="6.356">
        <ele>362</ele>
        <time>2010-10-10T10:02:26Z</time>
      </trkpt>
      <trkpt lat="43.238" lon="6.3561">
        <ele>362</ele>
        <time>2010-10-10T10:02:33Z</time>
      </trkpt>
      <trkpt lat="43.23804" lon="6.35604">
        <ele>361</ele>
        <time>2010-10-10T10:02:37Z</time>
      </trkpt>
      <trkpt lat="43.23804" lon="6.356">
        <ele>361</ele>
        <time>2010-10-10T10:02:44Z</time>
      </trkpt>
      <trkpt lat="43.238" lon="6.35596">
        <ele>361</ele>
        <time>2010-10-10T10:02:50Z</time>
      </trkpt>
      <trkpt lat="43.23788" lon="6.35567">
        <ele>361</ele>
        <time>2010-10-10T10:02:59Z</time>
      </trkpt>
      <trkpt lat="43.23783" lon="6.35564">
        <ele>361</ele>
        <time>2010-10-10T10:03:01Z</time>
      </trkpt>
      <trkpt lat="43.23766" lon="6.3557">
        <ele>360</ele>
        <time>2010-10-10T10:03:07Z</time>
      </trkpt>
      <trkpt lat="43.23712" lon="6.3561">
        <ele>360</ele>
        <time>2010-10-10T10:03:25Z</time>
      </trkpt>
      <trkpt lat="43.23698" lon="6.35608">
        <ele>360</ele>
        <time>2010-10-10T10:03:29Z</time>
      </trkpt>
      <trkpt lat="43.23698" lon="6.35598">
        <ele>360</ele>
        <time>2010-10-10T10:03:31Z</time>
      </trkpt>
      <trkpt lat="43.23688" lon="6.35458">
        <ele>361</ele>
        <time>2010-10-10T10:04:01Z</time>
      </trkpt>
      <trkpt lat="43.23661" lon="6.35333">
        <ele>363</ele>
        <time>2010-10-10T10:04:33Z</time>
      </trkpt>
      <trkpt lat="43.23666" lon="6.3527">
        <ele>362</ele>
        <time>2010-10-10T10:04:48Z</time>
      </trkpt>
      <trkpt lat="43.23671" lon="6.35254">
        <ele>361</ele>
        <time>2010-10-10T10:04:51Z</time>
      </trkpt>
      <trkpt lat="43.23681" lon="6.3522">
        <ele>365</ele>
        <time>2010-10-10T10:04:57Z</time>
      </trkpt>
      <trkpt lat="43.23683" lon="6.35211">
        <ele>365</ele>
        <time>2010-10-10T10:04:59Z</time>
      </trkpt>
      <trkpt lat="43.23706" lon="6.35137">
        <ele>369</ele>
        <time>2010-10-10T10:05:13Z</time>
      </trkpt>
      <trkpt lat="43.23702" lon="6.3509">
        <ele>370</ele>
        <time>2010-10-10T10:05:22Z</time>
      </trkpt>
      <trkpt lat="43.23696" lon="6.35057">
        <ele>371</ele>
        <time>2010-10-10T10:05:28Z</time>
      </trkpt>
      <trkpt lat="43.23689" lon="6.35028">
        <ele>371</ele>
        <time>2010-10-10T10:05:34Z</time>
      </trkpt>
      <trkpt lat="43.23692" lon="6.35009">
        <ele>372</ele>
        <time>2010-10-10T10:05:38Z</time>
      </trkpt>
      <trkpt lat="43.23729" lon="6.34904">
        <ele>374</ele>
        <time>2010-10-10T10:06:08Z</time>
      </trkpt>
      <trkpt lat="43.23726" lon="6.34889">
        <ele>375</ele>
        <time>2010-10-10T10:06:12Z</time>
      </trkpt>
      <trkpt lat="43.23655" lon="6.34784">
        <ele>381</ele>
        <time>2010-10-10T10:06:46Z</time>
      </trkpt>
      <trkpt lat="43.23581" lon="6.3472">
        <ele>385</ele>
        <time>2010-10-10T10:07:17Z</time>
      </trkpt>
      <trkpt lat="43.23577" lon="6.34716">
        <ele>385</ele>
        <time>2010-10-10T10:07:19Z</time>
      </trkpt>
      <trkpt lat="43.23573" lon="6.34703">
        <ele>385</ele>
        <time>2010-10-10T10:07:22Z</time>
      </trkpt>
      <trkpt lat="43.23564" lon="6.34642">
        <ele>387</ele>
        <time>2010-10-10T10:07:35Z</time>
      </trkpt>
      <trkpt lat="43.23555" lon="6.34638">
        <ele>387</ele>
        <time>2010-10-10T10:07:38Z</time>
      </trkpt>
      <trkpt lat="43.23549" lon="6.34639">
        <ele>387</ele>
        <time>2010-10-10T10:07:40Z</time>
      </trkpt>
      <trkpt lat="43.23519" lon="6.3466">
        <ele>389</ele>
        <time>2010-10-10T10:07:52Z</time>
      </trkpt>
      <trkpt lat="43.23504" lon="6.34648">
        <ele>390</ele>
        <time>2010-10-10T10:07:57Z</time>
      </trkpt>
      <trkpt lat="43.23467" lon="6.34597">
        <ele>392</ele>
        <time>2010-10-10T10:08:12Z</time>
      </trkpt>
      <trkpt lat="43.23471" lon="6.34591">
        <ele>392</ele>
        <time>2010-10-10T10:08:18Z</time>
      </trkpt>
      <trkpt lat="43.23478" lon="6.346">
        <ele>392</ele>
        <time>2010-10-10T10:08:23Z</time>
      </trkpt>
      <trkpt lat="43.23509" lon="6.34619">
        <ele>396</ele>
        <time>2010-10-10T10:08:54Z</time>
      </trkpt>
      <trkpt lat="43.23533" lon="6.34606">
        <ele>396</ele>
        <time>2010-10-10T10:09:08Z</time>
      </trkpt>
      <trkpt lat="43.2356" lon="6.34587">
        <ele>397</ele>
        <time>2010-10-10T10:09:23Z</time>
      </trkpt>
      <trkpt lat="43.2357" lon="6.34591">
        <ele>398</ele>
        <time>2010-10-10T10:09:30Z</time>
      </trkpt>
      <trkpt lat="43.23577" lon="6.34604">
        <ele>399</ele>
        <time>2010-10-10T10:09:35Z</time>
      </trkpt>
      <trkpt lat="43.23591" lon="6.34643">
        <ele>401</ele>
        <time>2010-10-10T10:09:50Z</time>
      </trkpt>
      <trkpt lat="43.23609" lon="6.3465">
        <ele>402</ele>
        <time>2010-10-10T10:09:56Z</time>
      </trkpt>
      <trkpt lat="43.2368" lon="6.34673">
        <ele>403</ele>
        <time>2010-10-10T10:10:27Z</time>
      </trkpt>
      <trkpt lat="43.23749" lon="6.34721">
        <ele>406</ele>
        <time>2010-10-10T10:10:59Z</time>
      </trkpt>
      <trkpt lat="43.23755" lon="6.34714">
        <ele>407</ele>
        <time>2010-10-10T10:11:04Z</time>
      </trkpt>
      <trkpt lat="43.23751" lon="6.34703">
        <ele>407</ele>
        <time>2010-10-10T10:11:09Z</time>
      </trkpt>
      <trkpt lat="43.23723" lon="6.34679">
        <ele>410</ele>
        <time>2010-10-10T10:11:26Z</time>
      </trkpt>
      <trkpt lat="43.23712" lon="6.34644">
        <ele>412</ele>
        <time>2010-10-10T10:11:41Z</time>
      </trkpt>
      <trkpt lat="43.23667" lon="6.34594">
        <ele>417</ele>
        <time>2010-10-10T10:12:15Z</time>
      </trkpt>
      <trkpt lat="43.23657" lon="6.34517">
        <ele>424</ele>
        <time>2010-10-10T10:12:46Z</time>
      </trkpt>
      <trkpt lat="43.23651" lon="6.34433">
        <ele>429</ele>
        <time>2010-10-10T10:13:18Z</time>
      </trkpt>
      <trkpt lat="43.2364" lon="6.34398">
        <ele>430</ele>
        <time>2010-10-10T10:13:30Z</time>
      </trkpt>
      <trkpt lat="43.23627" lon="6.34389">
        <ele>431</ele>
        <time>2010-10-10T10:13:39Z</time>
      </trkpt>
      <trkpt lat="43.23575" lon="6.34399">
        <ele>436</ele>
        <time>2010-10-10T10:14:11Z</time>
      </trkpt>
      <trkpt lat="43.23498" lon="6.34378">
        <ele>441</ele>
        <time>2010-10-10T10:14:46Z</time>
      </trkpt>
      <trkpt lat="43.23415" lon="6.34297">
        <ele>444</ele>
        <time>2010-10-10T10:15:17Z</time>
      </trkpt>
      <trkpt lat="43.23384" lon="6.34254">
        <ele>446</ele>
        <time>2010-10-10T10:15:27Z</time>
      </trkpt>
      <trkpt lat="43.23345" lon="6.34215">
        <ele>444</ele>
        <time>2010-10-10T10:15:37Z</time>
      </trkpt>
      <trkpt lat="43.2327" lon="6.34189">
        <ele>445</ele>
        <time>2010-10-10T10:16:10Z</time>
      </trkpt>
      <trkpt lat="43.23227" lon="6.3418">
        <ele>448</ele>
        <time>2010-10-10T10:16:35Z</time>
      </trkpt>
      <trkpt lat="43.232" lon="6.3421">
        <ele>450</ele>
        <time>2010-10-10T10:16:57Z</time>
      </trkpt>
      <trkpt lat="43.23194" lon="6.3421">
        <ele>450</ele>
        <time>2010-10-10T10:17:00Z</time>
      </trkpt>
      <trkpt lat="43.2319" lon="6.34205">
        <ele>450</ele>
        <time>2010-10-10T10:17:03Z</time>
      </trkpt>
      <trkpt lat="43.23188" lon="6.34199">
        <ele>451</ele>
        <time>2010-10-10T10:17:07Z</time>
      </trkpt>
      <trkpt lat="43.23186" lon="6.34184">
        <ele>452</ele>
        <time>2010-10-10T10:17:15Z</time>
      </trkpt>
      <trkpt lat="43.23181" lon="6.34177">
        <ele>453</ele>
        <time>2010-10-10T10:17:19Z</time>
      </trkpt>
      <trkpt lat="43.23177" lon="6.34176">
        <ele>453</ele>
        <time>2010-10-10T10:17:22Z</time>
      </trkpt>
      <trkpt lat="43.23173" lon="6.34181">
        <ele>454</ele>
        <time>2010-10-10T10:17:27Z</time>
      </trkpt>
      <trkpt lat="43.23142" lon="6.34221">
        <ele>459</ele>
        <time>2010-10-10T10:18:00Z</time>
      </trkpt>
      <trkpt lat="43.23138" lon="6.34226">
        <ele>460</ele>
        <time>2010-10-10T10:18:05Z</time>
      </trkpt>
      <trkpt lat="43.23128" lon="6.34226">
        <ele>461</ele>
        <time>2010-10-10T10:18:14Z</time>
      </trkpt>
      <trkpt lat="43.23123" lon="6.34225">
        <ele>461</ele>
        <time>2010-10-10T10:18:17Z</time>
      </trkpt>
      <trkpt lat="43.2312" lon="6.3422">
        <ele>461</ele>
        <time>2010-10-10T10:18:21Z</time>
      </trkpt>
      <trkpt lat="43.23118" lon="6.34213">
        <ele>462</ele>
        <time>2010-10-10T10:18:26Z</time>
      </trkpt>
      <trkpt lat="43.23121" lon="6.34207">
        <ele>462</ele>
        <time>2010-10-10T10:18:30Z</time>
      </trkpt>
      <trkpt lat="43.23124" lon="6.34201">
        <ele>463</ele>
        <time>2010-10-10T10:18:35Z</time>
      </trkpt>
      <trkpt lat="43.23125" lon="6.34187">
        <ele>464</ele>
        <time>2010-10-10T10:18:44Z</time>
      </trkpt>
      <trkpt lat="43.23121" lon="6.34182">
        <ele>464</ele>
        <time>2010-10-10T10:18:48Z</time>
      </trkpt>
      <trkpt lat="43.23065" lon="6.34174">
        <ele>469</ele>
        <time>2010-10-10T10:19:21Z</time>
      </trkpt>
      <trkpt lat="43.2298" lon="6.34142">
        <ele>472</ele>
        <time>2010-10-10T10:19:51Z</time>
      </trkpt>
      <trkpt lat="43.22918" lon="6.34132">
        <ele>476</ele>
        <time>2010-10-10T10:20:23Z</time>
      </trkpt>
      <trkpt lat="43.22867" lon="6.34122">
        <ele>479</ele>
        <time>2010-10-10T10:20:51Z</time>
      </trkpt>
      <trkpt lat="43.22806" lon="6.34025">
        <ele>484</ele>
        <time>2010-10-10T10:21:25Z</time>
      </trkpt>
      <trkpt lat="43.22747" lon="6.33929">
        <ele>489</ele>
        <time>2010-10-10T10:21:55Z</time>
      </trkpt>
      <trkpt lat="43.22721" lon="6.33903">
        <ele>490</ele>
        <time>2010-10-10T10:22:10Z</time>
      </trkpt>
      <trkpt lat="43.22704" lon="6.33899">
        <ele>491</ele>
        <time>2010-10-10T10:22:17Z</time>
      </trkpt>
      <trkpt lat="43.227" lon="6.33894">
        <ele>491</ele>
        <time>2010-10-10T10:22:20Z</time>
      </trkpt>
      <trkpt lat="43.22693" lon="6.33857">
        <ele>492</ele>
        <time>2010-10-10T10:22:36Z</time>
      </trkpt>
      <trkpt lat="43.22684" lon="6.33852">
        <ele>492</ele>
        <time>2010-10-10T10:22:43Z</time>
      </trkpt>
      <trkpt lat="43.22681" lon="6.33859">
        <ele>492</ele>
        <time>2010-10-10T10:22:47Z</time>
      </trkpt>
      <trkpt lat="43.22668" lon="6.33924">
        <ele>494</ele>
        <time>2010-10-10T10:23:17Z</time>
      </trkpt>
      <trkpt lat="43.22648" lon="6.33996">
        <ele>497</ele>
        <time>2010-10-10T10:23:49Z</time>
      </trkpt>
      <trkpt lat="43.22642" lon="6.34071">
        <ele>499</ele>
        <time>2010-10-10T10:24:17Z</time>
      </trkpt>
      <trkpt lat="43.22654" lon="6.34142">
        <ele>502</ele>
        <time>2010-10-10T10:24:40Z</time>
      </trkpt>
      <trkpt lat="43.22646" lon="6.34154">
        <ele>503</ele>
        <time>2010-10-10T10:24:45Z</time>
      </trkpt>
      <trkpt lat="43.22581" lon="6.34171">
        <ele>506</ele>
        <time>2010-10-10T10:25:08Z</time>
      </trkpt>
      <trkpt lat="43.22552" lon="6.34192">
        <ele>507</ele>
        <time>2010-10-10T10:25:20Z</time>
      </trkpt>
      <trkpt lat="43.22536" lon="6.34208">
        <ele>509</ele>
        <time>2010-10-10T10:25:28Z</time>
      </trkpt>
      <trkpt lat="43.2253" lon="6.34209">
        <ele>509</ele>
        <time>2010-10-10T10:25:31Z</time>
      </trkpt>
      <trkpt lat="43.22524" lon="6.34206">
        <ele>509</ele>
        <time>2010-10-10T10:25:34Z</time>
      </trkpt>
      <trkpt lat="43.22521" lon="6.34199">
        <ele>510</ele>
        <time>2010-10-10T10:25:37Z</time>
      </trkpt>
      <trkpt lat="43.22511" lon="6.34115">
        <ele>514</ele>
        <time>2010-10-10T10:26:08Z</time>
      </trkpt>
      <trkpt lat="43.22456" lon="6.34075">
        <ele>517</ele>
        <time>2010-10-10T10:26:40Z</time>
      </trkpt>
      <trkpt lat="43.22452" lon="6.34071">
        <ele>517</ele>
        <time>2010-10-10T10:26:43Z</time>
      </trkpt>
      <trkpt lat="43.2245" lon="6.34063">
        <ele>518</ele>
        <time>2010-10-10T10:26:47Z</time>
      </trkpt>
      <trkpt lat="43.22453" lon="6.34058">
        <ele>518</ele>
        <time>2010-10-10T10:26:49Z</time>
      </trkpt>
      <trkpt lat="43.22516" lon="6.34012">
        <ele>522</ele>
        <time>2010-10-10T10:27:25Z</time>
      </trkpt>
      <trkpt lat="43.22544" lon="6.33989">
        <ele>524</ele>
        <time>2010-10-10T10:27:40Z</time>
      </trkpt>
      <trkpt lat="43.22549" lon="6.33955">
        <ele>524</ele>
        <time>2010-10-10T10:27:52Z</time>
      </trkpt>
      <trkpt lat="43.22546" lon="6.33939">
        <ele>525</ele>
        <time>2010-10-10T10:27:58Z</time>
      </trkpt>
      <trkpt lat="43.22529" lon="6.33918">
        <ele>526</ele>
        <time>2010-10-10T10:28:09Z</time>
      </trkpt>
      <trkpt lat="43.22508" lon="6.33914">
        <ele>527</ele>
        <time>2010-10-10T10:28:22Z</time>
      </trkpt>
      <trkpt lat="43.22481" lon="6.33916">
        <ele>528</ele>
        <time>2010-10-10T10:28:42Z</time>
      </trkpt>
      <trkpt lat="43.22395" lon="6.33868">
        <ele>531</ele>
        <time>2010-10-10T10:29:13Z</time>
      </trkpt>
      <trkpt lat="43.22383" lon="6.33861">
        <ele>533</ele>
        <time>2010-10-10T10:29:16Z</time>
      </trkpt>
      <trkpt lat="43.22371" lon="6.33854">
        <ele>534</ele>
        <time>2010-10-10T10:29:19Z</time>
      </trkpt>
      <trkpt lat="43.22288" lon="6.33811">
        <ele>535</ele>
        <time>2010-10-10T10:29:50Z</time>
      </trkpt>
      <trkpt lat="43.22247" lon="6.33795">
        <ele>539</ele>
        <time>2010-10-10T10:30:23Z</time>
      </trkpt>
      <trkpt lat="43.22195" lon="6.33765">
        <ele>543</ele>
        <time>2010-10-10T10:30:53Z</time>
      </trkpt>
      <trkpt lat="43.22187" lon="6.33756">
        <ele>544</ele>
        <time>2010-10-10T10:30:59Z</time>
      </trkpt>
      <trkpt lat="43.22132" lon="6.33668">
        <ele>547</ele>
        <time>2010-10-10T10:31:29Z</time>
      </trkpt>
      <trkpt lat="43.22033" lon="6.33578">
        <ele>548</ele>
        <time>2010-10-10T10:32:01Z</time>
      </trkpt>
      <trkpt lat="43.21996" lon="6.33555">
        <ele>547</ele>
        <time>2010-10-10T10:32:14Z</time>
      </trkpt>
      <trkpt lat="43.21981" lon="6.33538">
        <ele>542</ele>
        <time>2010-10-10T10:32:19Z</time>
      </trkpt>
      <trkpt lat="43.21969" lon="6.33533">
        <ele>542</ele>
        <time>2010-10-10T10:32:23Z</time>
      </trkpt>
      <trkpt lat="43.21965" lon="6.33526">
        <ele>541</ele>
        <time>2010-10-10T10:32:26Z</time>
      </trkpt>
      <trkpt lat="43.21964" lon="6.33519">
        <ele>541</ele>
        <time>2010-10-10T10:32:28Z</time>
      </trkpt>
      <trkpt lat="43.21969" lon="6.335">
        <ele>539</ele>
        <time>2010-10-10T10:32:53Z</time>
      </trkpt>
      <trkpt lat="43.21973" lon="6.33493">
        <ele>538</ele>
        <time>2010-10-10T10:32:56Z</time>
      </trkpt>
      <trkpt lat="43.21976" lon="6.33467">
        <ele>537</ele>
        <time>2010-10-10T10:33:05Z</time>
      </trkpt>
      <trkpt lat="43.21981" lon="6.33461">
        <ele>536</ele>
        <time>2010-10-10T10:33:08Z</time>
      </trkpt>
      <trkpt lat="43.22018" lon="6.33448">
        <ele>533</ele>
        <time>2010-10-10T10:33:25Z</time>
      </trkpt>
      <trkpt lat="43.22043" lon="6.33446">
        <ele>532</ele>
        <time>2010-10-10T10:33:34Z</time>
      </trkpt>
      <trkpt lat="43.2206" lon="6.33434">
        <ele>525</ele>
        <time>2010-10-10T10:33:38Z</time>
      </trkpt>
      <trkpt lat="43.22133" lon="6.33374">
        <ele>518</ele>
        <time>2010-10-10T10:34:10Z</time>
      </trkpt>
      <trkpt lat="43.22198" lon="6.33284">
        <ele>513</ele>
        <time>2010-10-10T10:34:41Z</time>
      </trkpt>
      <trkpt lat="43.22241" lon="6.33265">
        <ele>509</ele>
        <time>2010-10-10T10:34:55Z</time>
      </trkpt>
      <trkpt lat="43.22271" lon="6.33258">
        <ele>495</ele>
        <time>2010-10-10T10:35:02Z</time>
      </trkpt>
      <trkpt lat="43.22296" lon="6.33243">
        <ele>494</ele>
        <time>2010-10-10T10:35:12Z</time>
      </trkpt>
      <trkpt lat="43.22297" lon="6.33236">
        <ele>494</ele>
        <time>2010-10-10T10:35:15Z</time>
      </trkpt>
      <trkpt lat="43.22294" lon="6.33231">
        <ele>493</ele>
        <time>2010-10-10T10:35:20Z</time>
      </trkpt>
      <trkpt lat="43.22279" lon="6.33213">
        <ele>489</ele>
        <time>2010-10-10T10:35:39Z</time>
      </trkpt>
      <trkpt lat="43.22277" lon="6.3318">
        <ele>486</ele>
        <time>2010-10-10T10:35:52Z</time>
      </trkpt>
      <trkpt lat="43.2228" lon="6.33167">
        <ele>484</ele>
        <time>2010-10-10T10:35:56Z</time>
      </trkpt>
      <trkpt lat="43.22331" lon="6.33084">
        <ele>473</ele>
        <time>2010-10-10T10:36:28Z</time>
      </trkpt>
      <trkpt lat="43.22361" lon="6.33058">
        <ele>465</ele>
        <time>2010-10-10T10:36:51Z</time>
      </trkpt>
      <trkpt lat="43.22365" lon="6.32973">
        <ele>458</ele>
        <time>2010-10-10T10:37:17Z</time>
      </trkpt>
      <trkpt lat="43.22359" lon="6.32959">
        <ele>457</ele>
        <time>2010-10-10T10:37:21Z</time>
      </trkpt>
      <trkpt lat="43.22347" lon="6.3294">
        <ele>454</ele>
        <time>2010-10-10T10:37:27Z</time>
      </trkpt>
      <trkpt lat="43.22329" lon="6.32871">
        <ele>448</ele>
        <time>2010-10-10T10:37:42Z</time>
      </trkpt>
      <trkpt lat="43.22318" lon="6.32863">
        <ele>446</ele>
        <time>2010-10-10T10:37:46Z</time>
      </trkpt>
      <trkpt lat="43.2231" lon="6.32841">
        <ele>444</ele>
        <time>2010-10-10T10:37:52Z</time>
      </trkpt>
      <trkpt lat="43.22311" lon="6.32835">
        <ele>443</ele>
        <time>2010-10-10T10:37:54Z</time>
      </trkpt>
      <trkpt lat="43.22314" lon="6.3283">
        <ele>442</ele>
        <time>2010-10-10T10:37:56Z</time>
      </trkpt>
      <trkpt lat="43.22324" lon="6.32829">
        <ele>440</ele>
        <time>2010-10-10T10:38:00Z</time>
      </trkpt>
      <trkpt lat="43.22397" lon="6.32812">
        <ele>428</ele>
        <time>2010-10-10T10:38:31Z</time>
      </trkpt>
      <trkpt lat="43.22402" lon="6.32809">
        <ele>426</ele>
        <time>2010-10-10T10:38:38Z</time>
      </trkpt>
      <trkpt lat="43.22497" lon="6.32786">
        <ele>410</ele>
        <time>2010-10-10T10:39:09Z</time>
      </trkpt>
      <trkpt lat="43.22568" lon="6.3276">
        <ele>384</ele>
        <time>2010-10-10T10:39:44Z</time>
      </trkpt>
      <trkpt lat="43.2259" lon="6.32761">
        <ele>380</ele>
        <time>2010-10-10T10:40:16Z</time>
      </trkpt>
      <trkpt lat="43.22638" lon="6.32732">
        <ele>379</ele>
        <time>2010-10-10T10:40:47Z</time>
      </trkpt>
      <trkpt lat="43.22673" lon="6.32708">
        <ele>379</ele>
        <time>2010-10-10T10:41:17Z</time>
      </trkpt>
      <trkpt lat="43.22692" lon="6.32693">
        <ele>381</ele>
        <time>2010-10-10T10:41:42Z</time>
      </trkpt>
      <trkpt lat="43.22711" lon="6.32663">
        <ele>385</ele>
        <time>2010-10-10T10:42:17Z</time>
      </trkpt>
      <trkpt lat="43.22719" lon="6.32659">
        <ele>386</ele>
        <time>2010-10-10T10:42:26Z</time>
      </trkpt>
      <trkpt lat="43.22724" lon="6.32659">
        <ele>387</ele>
        <time>2010-10-10T10:42:33Z</time>
      </trkpt>
      <trkpt lat="43.22729" lon="6.32656">
        <ele>388</ele>
        <time>2010-10-10T10:42:39Z</time>
      </trkpt>
      <trkpt lat="43.22747" lon="6.32636">
        <ele>393</ele>
        <time>2010-10-10T10:43:16Z</time>
      </trkpt>
      <trkpt lat="43.22764" lon="6.32628">
        <ele>400</ele>
        <time>2010-10-10T10:44:02Z</time>
      </trkpt>
      <trkpt lat="43.22794" lon="6.32629">
        <ele>407</ele>
        <time>2010-10-10T10:44:38Z</time>
      </trkpt>
      <trkpt lat="43.22799" lon="6.3263">
        <ele>408</ele>
        <time>2010-10-10T10:44:44Z</time>
      </trkpt>
      <trkpt lat="43.22817" lon="6.32623">
        <ele>409</ele>
        <time>2010-10-10T10:44:59Z</time>
      </trkpt>
      <trkpt lat="43.22827" lon="6.32598">
        <ele>412</ele>
        <time>2010-10-10T10:45:21Z</time>
      </trkpt>
      <trkpt lat="43.22826" lon="6.32591">
        <ele>413</ele>
        <time>2010-10-10T10:45:25Z</time>
      </trkpt>
      <trkpt lat="43.22816" lon="6.32566">
        <ele>417</ele>
        <time>2010-10-10T10:45:43Z</time>
      </trkpt>
      <trkpt lat="43.22818" lon="6.32554">
        <ele>419</ele>
        <time>2010-10-10T10:45:57Z</time>
      </trkpt>
      <trkpt lat="43.22845" lon="6.32508">
        <ele>424</ele>
        <time>2010-10-10T10:46:32Z</time>
      </trkpt>
      <trkpt lat="43.22846" lon="6.32501">
        <ele>424</ele>
        <time>2010-10-10T10:46:37Z</time>
      </trkpt>
      <trkpt lat="43.2285" lon="6.32496">
        <ele>425</ele>
        <time>2010-10-10T10:46:41Z</time>
      </trkpt>
      <trkpt lat="43.2286" lon="6.32491">
        <ele>426</ele>
        <time>2010-10-10T10:46:48Z</time>
      </trkpt>
      <trkpt lat="43.22863" lon="6.32485">
        <ele>427</ele>
        <time>2010-10-10T10:46:54Z</time>
      </trkpt>
      <trkpt lat="43.22864" lon="6.32478">
        <ele>427</ele>
        <time>2010-10-10T10:46:59Z</time>
      </trkpt>
      <trkpt lat="43.22871" lon="6.32463">
        <ele>428</ele>
        <time>2010-10-10T10:47:13Z</time>
      </trkpt>
      <trkpt lat="43.22882" lon="6.32437">
        <ele>429</ele>
        <time>2010-10-10T10:47:22Z</time>
      </trkpt>
      <trkpt lat="43.22879" lon="6.32414">
        <ele>429</ele>
        <time>2010-10-10T10:47:29Z</time>
      </trkpt>
      <trkpt lat="43.22864" lon="6.3238">
        <ele>430</ele>
        <time>2010-10-10T10:47:40Z</time>
      </trkpt>
      <trkpt lat="43.22865" lon="6.32373">
        <ele>430</ele>
        <time>2010-10-10T10:47:42Z</time>
      </trkpt>
      <trkpt lat="43.22868" lon="6.32366">
        <ele>430</ele>
        <time>2010-10-10T10:47:44Z</time>
      </trkpt>
      <trkpt lat="43.22869" lon="6.32359">
        <ele>430</ele>
        <time>2010-10-10T10:47:47Z</time>
      </trkpt>
      <trkpt lat="43.22867" lon="6.32355">
        <ele>430</ele>
        <time>2010-10-10T10:47:55Z</time>
      </trkpt>
      <trkpt lat="43.22867" lon="6.32358">
        <ele>430</ele>
        <time>2010-10-10T10:48:09Z</time>
      </trkpt>
      <trkpt lat="43.22863" lon="6.32372">
        <ele>430</ele>
        <time>2010-10-10T10:48:18Z</time>
      </trkpt>
      <trkpt lat="43.22863" lon="6.32379">
        <ele>431</ele>
        <time>2010-10-10T10:48:30Z</time>
      </trkpt>
      <trkpt lat="43.22881" lon="6.32426">
        <ele>432</ele>
        <time>2010-10-10T10:48:52Z</time>
      </trkpt>
      <trkpt lat="43.2288" lon="6.3244">
        <ele>433</ele>
        <time>2010-10-10T10:49:04Z</time>
      </trkpt>
      <trkpt lat="43.22873" lon="6.32457">
        <ele>434</ele>
        <time>2010-10-10T10:49:16Z</time>
      </trkpt>
      <trkpt lat="43.22872" lon="6.3246">
        <ele>434</ele>
        <time>2010-10-10T10:49:22Z</time>
      </trkpt>
      <trkpt lat="43.22869" lon="6.32465">
        <ele>433</ele>
        <time>2010-10-10T10:49:26Z</time>
      </trkpt>
      <trkpt lat="43.22862" lon="6.32487">
        <ele>434</ele>
        <time>2010-10-10T10:49:36Z</time>
      </trkpt>
      <trkpt lat="43.22825" lon="6.32571">
        <ele>434</ele>
        <time>2010-10-10T10:50:04Z</time>
      </trkpt>
      <trkpt lat="43.22829" lon="6.32594">
        <ele>434</ele>
        <time>2010-10-10T10:50:11Z</time>
      </trkpt>
      <trkpt lat="43.22826" lon="6.32609">
        <ele>434</ele>
        <time>2010-10-10T10:50:15Z</time>
      </trkpt>
      <trkpt lat="43.22805" lon="6.32628">
        <ele>434</ele>
        <time>2010-10-10T10:50:23Z</time>
      </trkpt>
      <trkpt lat="43.22738" lon="6.32644">
        <ele>429</ele>
        <time>2010-10-10T10:50:53Z</time>
      </trkpt>
      <trkpt lat="43.22672" lon="6.32707">
        <ele>419</ele>
        <time>2010-10-10T10:51:25Z</time>
      </trkpt>
      <trkpt lat="43.22628" lon="6.32741">
        <ele>403</ele>
        <time>2010-10-10T10:52:00Z</time>
      </trkpt>
      <trkpt lat="43.22631" lon="6.32746">
        <ele>403</ele>
        <time>2010-10-10T10:52:18Z</time>
      </trkpt>
      <trkpt lat="43.22624" lon="6.32749">
        <ele>399</ele>
        <time>2010-10-10T10:53:13Z</time>
      </trkpt>
      <trkpt lat="43.22608" lon="6.32758">
        <ele>397</ele>
        <time>2010-10-10T10:53:19Z</time>
      </trkpt>
      <trkpt lat="43.22594" lon="6.32763">
        <ele>391</ele>
        <time>2010-10-10T10:53:23Z</time>
      </trkpt>
      <trkpt lat="43.22569" lon="6.32766">
        <ele>388</ele>
        <time>2010-10-10T10:53:37Z</time>
      </trkpt>
      <trkpt lat="43.22562" lon="6.32771">
        <ele>386</ele>
        <time>2010-10-10T10:53:51Z</time>
      </trkpt>
      <trkpt lat="43.22562" lon="6.32763">
        <ele>383</ele>
        <time>2010-10-10T10:54:07Z</time>
      </trkpt>
      <trkpt lat="43.22615" lon="6.32677">
        <ele>380</ele>
        <time>2010-10-10T10:54:49Z</time>
      </trkpt>
      <trkpt lat="43.2264" lon="6.32623">
        <ele>376</ele>
        <time>2010-10-10T10:55:20Z</time>
      </trkpt>
      <trkpt lat="43.22655" lon="6.32594">
        <ele>373</ele>
        <time>2010-10-10T10:55:47Z</time>
      </trkpt>
      <trkpt lat="43.22683" lon="6.32528">
        <ele>372</ele>
        <time>2010-10-10T10:56:17Z</time>
      </trkpt>
      <trkpt lat="43.2269" lon="6.32518">
        <ele>371</ele>
        <time>2010-10-10T10:56:27Z</time>
      </trkpt>
      <trkpt lat="43.22698" lon="6.32493">
        <ele>372</ele>
        <time>2010-10-10T10:56:47Z</time>
      </trkpt>
      <trkpt lat="43.22734" lon="6.32435">
        <ele>374</ele>
        <time>2010-10-10T10:57:19Z</time>
      </trkpt>
      <trkpt lat="43.22738" lon="6.32423">
        <ele>374</ele>
        <time>2010-10-10T10:57:23Z</time>
      </trkpt>
      <trkpt lat="43.2274" lon="6.32388">
        <ele>376</ele>
        <time>2010-10-10T10:57:45Z</time>
      </trkpt>
      <trkpt lat="43.22756" lon="6.32326">
        <ele>378</ele>
        <time>2010-10-10T10:58:16Z</time>
      </trkpt>
      <trkpt lat="43.22759" lon="6.32321">
        <ele>378</ele>
        <time>2010-10-10T10:58:19Z</time>
      </trkpt>
      <trkpt lat="43.22761" lon="6.32307">
        <ele>378</ele>
        <time>2010-10-10T10:58:27Z</time>
      </trkpt>
      <trkpt lat="43.2276" lon="6.32274">
        <ele>380</ele>
        <time>2010-10-10T10:58:51Z</time>
      </trkpt>
      <trkpt lat="43.22763" lon="6.3227">
        <ele>380</ele>
        <time>2010-10-10T10:59:00Z</time>
      </trkpt>
      <trkpt lat="43.22763" lon="6.32264">
        <ele>380</ele>
        <time>2010-10-10T10:59:15Z</time>
      </trkpt>
      <trkpt lat="43.22763" lon="6.32258">
        <ele>380</ele>
        <time>2010-10-10T11:00:22Z</time>
      </trkpt>
      <trkpt lat="43.2276" lon="6.32252">
        <ele>379</ele>
        <time>2010-10-10T11:00:44Z</time>
      </trkpt>
      <trkpt lat="43.22759" lon="6.32244">
        <ele>379</ele>
        <time>2010-10-10T11:00:52Z</time>
      </trkpt>
      <trkpt lat="43.22758" lon="6.32212">
        <ele>379</ele>
        <time>2010-10-10T11:01:24Z</time>
      </trkpt>
      <trkpt lat="43.22743" lon="6.32163">
        <ele>380</ele>
        <time>2010-10-10T11:01:58Z</time>
      </trkpt>
      <trkpt lat="43.22714" lon="6.32112">
        <ele>380</ele>
        <time>2010-10-10T11:02:30Z</time>
      </trkpt>
      <trkpt lat="43.22712" lon="6.32104">
        <ele>380</ele>
        <time>2010-10-10T11:02:33Z</time>
      </trkpt>
      <trkpt lat="43.22714" lon="6.32089">
        <ele>380</ele>
        <time>2010-10-10T11:02:37Z</time>
      </trkpt>
      <trkpt lat="43.22735" lon="6.32048">
        <ele>378</ele>
        <time>2010-10-10T11:03:13Z</time>
      </trkpt>
      <trkpt lat="43.22756" lon="6.31999">
        <ele>377</ele>
        <time>2010-10-10T11:03:43Z</time>
      </trkpt>
      <trkpt lat="43.22789" lon="6.31966">
        <ele>375</ele>
        <time>2010-10-10T11:04:21Z</time>
      </trkpt>
      <trkpt lat="43.22816" lon="6.31931">
        <ele>374</ele>
        <time>2010-10-10T11:05:23Z</time>
      </trkpt>
      <trkpt lat="43.22822" lon="6.3191">
        <ele>375</ele>
        <time>2010-10-10T11:05:41Z</time>
      </trkpt>
      <trkpt lat="43.22821" lon="6.31903">
        <ele>374</ele>
        <time>2010-10-10T11:05:49Z</time>
      </trkpt>
      <trkpt lat="43.22815" lon="6.31893">
        <ele>374</ele>
        <time>2010-10-10T11:06:01Z</time>
      </trkpt>
      <trkpt lat="43.22813" lon="6.31879">
        <ele>373</ele>
        <time>2010-10-10T11:06:12Z</time>
      </trkpt>
      <trkpt lat="43.2282" lon="6.31861">
        <ele>373</ele>
        <time>2010-10-10T11:06:24Z</time>
      </trkpt>
      <trkpt lat="43.2282" lon="6.31854">
        <ele>373</ele>
        <time>2010-10-10T11:06:28Z</time>
      </trkpt>
      <trkpt lat="43.22825" lon="6.31848">
        <ele>373</ele>
        <time>2010-10-10T11:06:40Z</time>
      </trkpt>
      <trkpt lat="43.22828" lon="6.31838">
        <ele>373</ele>
        <time>2010-10-10T11:06:44Z</time>
      </trkpt>
      <trkpt lat="43.22828" lon="6.31781">
        <ele>373</ele>
        <time>2010-10-10T11:07:22Z</time>
      </trkpt>
      <trkpt lat="43.22835" lon="6.3176">
        <ele>373</ele>
        <time>2010-10-10T11:07:30Z</time>
      </trkpt>
      <trkpt lat="43.22839" lon="6.31754">
        <ele>372</ele>
        <time>2010-10-10T11:07:35Z</time>
      </trkpt>
      <trkpt lat="43.22845" lon="6.31753">
        <ele>372</ele>
        <time>2010-10-10T11:07:41Z</time>
      </trkpt>
      <trkpt lat="43.2286" lon="6.31736">
        <ele>371</ele>
        <time>2010-10-10T11:07:58Z</time>
      </trkpt>
      <trkpt lat="43.22866" lon="6.31735">
        <ele>371</ele>
        <time>2010-10-10T11:08:02Z</time>
      </trkpt>
      <trkpt lat="43.22878" lon="6.31726">
        <ele>370</ele>
        <time>2010-10-10T11:08:11Z</time>
      </trkpt>
      <trkpt lat="43.22899" lon="6.31702">
        <ele>367</ele>
        <time>2010-10-10T11:08:41Z</time>
      </trkpt>
      <trkpt lat="43.22932" lon="6.31601">
        <ele>363</ele>
        <time>2010-10-10T11:09:13Z</time>
      </trkpt>
      <trkpt lat="43.22937" lon="6.31599">
        <ele>362</ele>
        <time>2010-10-10T11:09:20Z</time>
      </trkpt>
      <trkpt lat="43.22956" lon="6.316">
        <ele>355</ele>
        <time>2010-10-10T11:09:52Z</time>
      </trkpt>
      <trkpt lat="43.22993" lon="6.31565">
        <ele>347</ele>
        <time>2010-10-10T11:10:26Z</time>
      </trkpt>
      <trkpt lat="43.23052" lon="6.31523">
        <ele>341</ele>
        <time>2010-10-10T11:10:55Z</time>
      </trkpt>
      <trkpt lat="43.23098" lon="6.31523">
        <ele>334</ele>
        <time>2010-10-10T11:11:12Z</time>
      </trkpt>
      <trkpt lat="43.23143" lon="6.31531">
        <ele>323</ele>
        <time>2010-10-10T11:11:50Z</time>
      </trkpt>
      <trkpt lat="43.23157" lon="6.31527">
        <ele>317</ele>
        <time>2010-10-10T11:12:12Z</time>
      </trkpt>
      <trkpt lat="43.23162" lon="6.31522">
        <ele>315</ele>
        <time>2010-10-10T11:12:20Z</time>
      </trkpt>
      <trkpt lat="43.23178" lon="6.31513">
        <ele>312</ele>
        <time>2010-10-10T11:12:43Z</time>
      </trkpt>
      <trkpt lat="43.23208" lon="6.31459">
        <ele>304</ele>
        <time>2010-10-10T11:13:16Z</time>
      </trkpt>
      <trkpt lat="43.23234" lon="6.31431">
        <ele>300</ele>
        <time>2010-10-10T11:13:28Z</time>
      </trkpt>
      <trkpt lat="43.23244" lon="6.31435">
        <ele>299</ele>
        <time>2010-10-10T11:13:33Z</time>
      </trkpt>
      <trkpt lat="43.2326" lon="6.31446">
        <ele>298</ele>
        <time>2010-10-10T11:13:39Z</time>
      </trkpt>
      <trkpt lat="43.23303" lon="6.31434">
        <ele>290</ele>
        <time>2010-10-10T11:14:04Z</time>
      </trkpt>
      <trkpt lat="43.23321" lon="6.31417">
        <ele>284</ele>
        <time>2010-10-10T11:14:37Z</time>
      </trkpt>
      <trkpt lat="43.23336" lon="6.31415">
        <ele>280</ele>
        <time>2010-10-10T11:15:07Z</time>
      </trkpt>
      <trkpt lat="43.23342" lon="6.31412">
        <ele>277</ele>
        <time>2010-10-10T11:17:47Z</time>
      </trkpt>
      <trkpt lat="43.23348" lon="6.31408">
        <ele>275</ele>
        <time>2010-10-10T11:18:04Z</time>
      </trkpt>
      <trkpt lat="43.2335" lon="6.31407">
        <ele>275</ele>
        <time>2010-10-10T11:24:18Z</time>
      </trkpt>
      <trkpt lat="43.23357" lon="6.31399">
        <ele>275</ele>
        <time>2010-10-10T11:25:16Z</time>
      </trkpt>
      <trkpt lat="43.23366" lon="6.31394">
        <ele>274</ele>
        <time>2010-10-10T11:25:26Z</time>
      </trkpt>
      <trkpt lat="43.23373" lon="6.31384">
        <ele>274</ele>
        <time>2010-10-10T11:25:40Z</time>
      </trkpt>
      <trkpt lat="43.23378" lon="6.31385">
        <ele>273</ele>
        <time>2010-10-10T11:25:52Z</time>
      </trkpt>
      <trkpt lat="43.2339" lon="6.31391">
        <ele>272</ele>
        <time>2010-10-10T11:26:15Z</time>
      </trkpt>
      <trkpt lat="43.23408" lon="6.31391">
        <ele>268</ele>
        <time>2010-10-10T11:26:45Z</time>
      </trkpt>
      <trkpt lat="43.23445" lon="6.31352">
        <ele>257</ele>
        <time>2010-10-10T11:27:19Z</time>
      </trkpt>
      <trkpt lat="43.23495" lon="6.31289">
        <ele>248</ele>
        <time>2010-10-10T11:27:51Z</time>
      </trkpt>
      <trkpt lat="43.23542" lon="6.31221">
        <ele>229</ele>
        <time>2010-10-10T11:28:07Z</time>
      </trkpt>
      <trkpt lat="43.23558" lon="6.31201">
        <ele>229</ele>
        <time>2010-10-10T11:28:14Z</time>
      </trkpt>
      <trkpt lat="43.23578" lon="6.31191">
        <ele>226</ele>
        <time>2010-10-10T11:28:19Z</time>
      </trkpt>
      <trkpt lat="43.23587" lon="6.31179">
        <ele>226</ele>
        <time>2010-10-10T11:28:22Z</time>
      </trkpt>
      <trkpt lat="43.23582" lon="6.31167">
        <ele>223</ele>
        <time>2010-10-10T11:28:27Z</time>
      </trkpt>
      <trkpt lat="43.23572" lon="6.31168">
        <ele>220</ele>
        <time>2010-10-10T11:28:29Z</time>
      </trkpt>
      <trkpt lat="43.23561" lon="6.31169">
        <ele>219</ele>
        <time>2010-10-10T11:28:32Z</time>
      </trkpt>
      <trkpt lat="43.2355" lon="6.31164">
        <ele>219</ele>
        <time>2010-10-10T11:28:37Z</time>
      </trkpt>
      <trkpt lat="43.23558" lon="6.31153">
        <ele>218</ele>
        <time>2010-10-10T11:28:42Z</time>
      </trkpt>
      <trkpt lat="43.23571" lon="6.3115">
        <ele>218</ele>
        <time>2010-10-10T11:28:46Z</time>
      </trkpt>
      <trkpt lat="43.2358" lon="6.31141">
        <ele>218</ele>
        <time>2010-10-10T11:28:51Z</time>
      </trkpt>
      <trkpt lat="43.23583" lon="6.31128">
        <ele>218</ele>
        <time>2010-10-10T11:28:55Z</time>
      </trkpt>
      <trkpt lat="43.23573" lon="6.31125">
        <ele>218</ele>
        <time>2010-10-10T11:28:59Z</time>
      </trkpt>
      <trkpt lat="43.23563" lon="6.31123">
        <ele>216</ele>
        <time>2010-10-10T11:29:02Z</time>
      </trkpt>
      <trkpt lat="43.23566" lon="6.31108">
        <ele>215</ele>
        <time>2010-10-10T11:29:09Z</time>
      </trkpt>
      <trkpt lat="43.23579" lon="6.31102">
        <ele>213</ele>
        <time>2010-10-10T11:29:12Z</time>
      </trkpt>
      <trkpt lat="43.23595" lon="6.31084">
        <ele>213</ele>
        <time>2010-10-10T11:29:17Z</time>
      </trkpt>
      <trkpt lat="43.23614" lon="6.31081">
        <ele>213</ele>
        <time>2010-10-10T11:29:23Z</time>
      </trkpt>
      <trkpt lat="43.23621" lon="6.3107">
        <ele>213</ele>
        <time>2010-10-10T11:29:26Z</time>
      </trkpt>
      <trkpt lat="43.23626" lon="6.31054">
        <ele>214</ele>
        <time>2010-10-10T11:29:29Z</time>
      </trkpt>
      <trkpt lat="43.23662" lon="6.31">
        <ele>218</ele>
        <time>2010-10-10T11:29:41Z</time>
      </trkpt>
      <trkpt lat="43.23691" lon="6.31001">
        <ele>218</ele>
        <time>2010-10-10T11:29:49Z</time>
      </trkpt>
      <trkpt lat="43.23754" lon="6.30938">
        <ele>221</ele>
        <time>2010-10-10T11:30:05Z</time>
      </trkpt>
      <trkpt lat="43.23767" lon="6.30925">
        <ele>221</ele>
        <time>2010-10-10T11:30:11Z</time>
      </trkpt>
      <trkpt lat="43.23781" lon="6.30936">
        <ele>220</ele>
        <time>2010-10-10T11:30:19Z</time>
      </trkpt>
      <trkpt lat="43.23781" lon="6.30952">
        <ele>219</ele>
        <time>2010-10-10T11:30:25Z</time>
      </trkpt>
      <trkpt lat="43.2377" lon="6.30964">
        <ele>217</ele>
        <time>2010-10-10T11:30:31Z</time>
      </trkpt>
      <trkpt lat="43.23743" lon="6.30987">
        <ele>216</ele>
        <time>2010-10-10T11:30:41Z</time>
      </trkpt>
      <trkpt lat="43.23747" lon="6.30998">
        <ele>216</ele>
        <time>2010-10-10T11:30:59Z</time>
      </trkpt>
      <trkpt lat="43.23777" lon="6.30973">
        <ele>216</ele>
        <time>2010-10-10T11:31:12Z</time>
      </trkpt>
      <trkpt lat="43.23786" lon="6.30986">
        <ele>216</ele>
        <time>2010-10-10T11:31:17Z</time>
      </trkpt>
      <trkpt lat="43.23808" lon="6.31023">
        <ele>216</ele>
        <time>2010-10-10T11:31:28Z</time>
      </trkpt>
      <trkpt lat="43.23808" lon="6.31037">
        <ele>216</ele>
        <time>2010-10-10T11:31:30Z</time>
      </trkpt>
      <trkpt lat="43.23808" lon="6.31071">
        <ele>217</ele>
        <time>2010-10-10T11:31:37Z</time>
      </trkpt>
      <trkpt lat="43.23812" lon="6.31072">
        <ele>216</ele>
        <time>2010-10-10T11:31:51Z</time>
      </trkpt>
      <trkpt lat="43.23814" lon="6.31058">
        <ele>216</ele>
        <time>2010-10-10T11:31:55Z</time>
      </trkpt>
      <trkpt lat="43.23815" lon="6.30985">
        <ele>215</ele>
        <time>2010-10-10T11:32:12Z</time>
      </trkpt>
      <trkpt lat="43.23818" lon="6.30972">
        <ele>214</ele>
        <time>2010-10-10T11:32:19Z</time>
      </trkpt>
      <trkpt lat="43.23814" lon="6.30958">
        <ele>212</ele>
        <time>2010-10-10T11:32:23Z</time>
      </trkpt>
      <trkpt lat="43.23795" lon="6.30925">
        <ele>204</ele>
        <time>2010-10-10T11:32:38Z</time>
      </trkpt>
      <trkpt lat="43.23786" lon="6.30926">
        <ele>203</ele>
        <time>2010-10-10T11:32:44Z</time>
      </trkpt>
      <trkpt lat="43.23738" lon="6.30955">
        <ele>201</ele>
        <time>2010-10-10T11:32:58Z</time>
      </trkpt>
      <trkpt lat="43.23727" lon="6.30943">
        <ele>200</ele>
        <time>2010-10-10T11:33:02Z</time>
      </trkpt>
      <trkpt lat="43.23719" lon="6.30933">
        <ele>200</ele>
        <time>2010-10-10T11:33:06Z</time>
      </trkpt>
      <trkpt lat="43.23716" lon="6.30918">
        <ele>200</ele>
        <time>2010-10-10T11:33:12Z</time>
      </trkpt>
      <trkpt lat="43.23719" lon="6.30909">
        <ele>199</ele>
        <time>2010-10-10T11:33:16Z</time>
      </trkpt>
      <trkpt lat="43.23723" lon="6.30905">
        <ele>199</ele>
        <time>2010-10-10T11:33:17Z</time>
      </trkpt>
      <trkpt lat="43.23726" lon="6.30897">
        <ele>199</ele>
        <time>2010-10-10T11:34:30Z</time>
      </trkpt>
      <trkpt lat="43.2373" lon="6.30894">
        <ele>199</ele>
        <time>2010-10-10T11:34:54Z</time>
      </trkpt>
      <trkpt lat="43.23738" lon="6.30888">
        <ele>197</ele>
        <time>2010-10-10T11:36:12Z</time>
      </trkpt>
    </trkseg>
  </trk>
</gpx>